Home > Products > Valid Products > MTR

000
SAUS41 KLWX 080632
MTRRSP
METAR KRSP 080554Z AUTO 10SM CLR 23/18 A3004 RMK AO2 SLP161
T02280178 10239 20222 57008 $





000
SAUS41 KLWX 080600
MTRRYT
METAR KRYT 080553Z AUTO 22007KT 180V260 10SM CLR 26/18 A2998 RMK AO2
SLP137 T02560183 10267 20233 58004 $





000
SAUS41 KLWX 080558
MTRDMH
METAR KDMH 080554Z AUTO 26/21 A2997 RMK AO1 SLP149 T02610211 10306
20261 56007





000
SAUS41 KLWX 080555
MTRNAK
METAR KNAK 080554Z AUTO VRB05KT 6SM HZ CLR 27/21 A2998 RMK AO2
SLP152 T02670206 10283 20250 56010





000
SAUS41 KLWX 080555
MTRNAK
METAR KNAK 080554Z AUTO VRB05KT 6SM HZ CLR 27/21 A2998 RMK AO2
SLP152 T02670206 10283 20250 56010





000
SAUS41 KLWX 080531
MTRRSP
METAR KRSP 080454Z AUTO 10SM CLR 23/18 A3004 RMK AO2 SLP163
T02280183 402720194 $





000
SAUS41 KLWX 080500
MTRRYT
METAR KRYT 080453Z AUTO 22005KT 10SM BKN095 27/18 A2998 RMK AO2
SLP137 T02670183 402940200 $





000
SAUS41 KLWX 080500
MTRRYT
METAR KRYT 080453Z AUTO 22005KT 10SM BKN095 27/18 A2998 RMK AO2
SLP137 T02670183 402940200 $





000
SAUS41 KLWX 080458
MTRDMH
METAR KDMH 080454Z AUTO 27/21 A2998 RMK AO1 SLP150 T02670206
403280228





000
SAUS41 KLWX 080458
MTRDMH
METAR KDMH 080454Z AUTO 27/21 A2998 RMK AO1 SLP150 T02670206
403280228





000
SAUS41 KLWX 080456
MTRNAK
METAR KNAK 080454Z AUTO VRB04KT 7SM CLR 27/21 A2998 RMK AO2 SLP154
T02670206 403110228





000
SAUS41 KLWX 080431
MTRRSP
METAR KRSP 080354Z AUTO 8SM FEW060 SCT085 23/19 A3006 RMK AO2 SLP167
T02330189 $





000
SAUS41 KLWX 080400
MTRRYT
METAR KRYT 080353Z AUTO 21007G15KT 9SM BKN060 26/19 A3000 RMK AO2
SLP142 T02610194 $





000
SAUS41 KLWX 080357
MTRDMH
METAR KDMH 080354Z AUTO 27/21 A2999 RMK AO1 SLP154 T02720206





000
SAUS41 KLWX 080355
MTRNAK
METAR KNAK 080354Z AUTO 19004KT 7SM CLR 27/21 A3000 RMK AO2 SLP159
T02670206





000
SAUS41 KLWX 080331
MTRRSP
METAR KRSP 080254Z AUTO 8SM FEW055 23/19 A3006 RMK AO2 SLP170
T02330194 50004 $





000
SAUS41 KLWX 080300
MTRRYT
METAR KRYT 080253Z AUTO 20005KT 8SM CLR 26/21 A3000 RMK AO2 SLP142
T02560206 50003 $





000
SAUS41 KLWX 080258
MTRDMH
METAR KDMH 080254Z AUTO 28/21 A2999 RMK AO1 SLP156 T02780206 51010





000
SAUS41 KLWX 080255
MTRNAK
METAR KNAK 080254Z AUTO 19004KT 7SM CLR 27/21 A3001 RMK AO2 SLP163
T02670206 51009





000
SAUS41 KLWX 080255
MTRNAK
METAR KNAK 080254Z AUTO 19004KT 7SM CLR 27/21 A3001 RMK AO2 SLP163
T02670206 51009





000
SAUS41 KLWX 080231
MTRRSP
METAR KRSP 080154Z AUTO 7SM CLR 23/19 A3007 RMK AO2 SLP172 T02330194
$





000
SAUS41 KLWX 080231
MTRRSP
METAR KRSP 080154Z AUTO 7SM CLR 23/19 A3007 RMK AO2 SLP172 T02330194
$





000
SAUS41 KLWX 080200
MTRRYT
METAR KRYT 080153Z AUTO 00000KT 7SM CLR 24/20 A3000 RMK AO2 SLP146
T02390200 $





000
SAUS41 KLWX 080158
MTRDMH
METAR KDMH 080154Z AUTO 28/20 A2999 RMK AO1 SLP155 T02830200





000
SAUS41 KLWX 080158
MTRDMH
METAR KDMH 080154Z AUTO 28/20 A2999 RMK AO1 SLP155 T02830200





000
SAUS41 KLWX 080155
MTRNAK
METAR KNAK 080154Z AUTO 19005KT 7SM CLR 27/21 A3001 RMK AO2 SLP162
T02720206





000
SAUS41 KLWX 080131
MTRRSP
METAR KRSP 080054Z AUTO 7SM CLR 24/19 A3006 RMK AO2 SLP170 T02390194
$





000
SAUS41 KLWX 080131
MTRRSP
METAR KRSP 080054Z AUTO 7SM CLR 24/19 A3006 RMK AO2 SLP170 T02390194
$





000
SAUS41 KLWX 080100
MTRRYT
METAR KRYT 080053Z AUTO 00000KT 7SM CLR 25/20 A2999 RMK AO2 SLP141
T02500200 $





000
SAUS41 KLWX 080058
MTRDMH
METAR KDMH 080054Z AUTO 29/19 A2997 RMK AO1 SLP148 T02940194





000
SAUS41 KLWX 080058
MTRDMH
METAR KDMH 080054Z AUTO 29/19 A2997 RMK AO1 SLP148 T02940194





000
SAUS41 KLWX 080056
MTRNAK
METAR KNAK 080054Z AUTO 19003KT 7SM CLR 28/21 A2999 RMK AO2 SLP156
T02780206





000
SAUS41 KLWX 080056
MTRNAK
METAR KNAK 080054Z AUTO 19003KT 7SM CLR 28/21 A2999 RMK AO2 SLP156
T02780206





000
SAUS41 KLWX 080031
MTRRSP
METAR KRSP 072354Z AUTO 6SM HZ CLR 24/19 A3005 RMK AO2 SLP167
T02390189 10272 20239 56002 $





000
SAUS41 KLWX 080000
MTRRYT
METAR KRYT 072353Z AUTO 00000KT 6SM HZ CLR 26/21 A2999 RMK AO2
SLP140 T02610206 10294 20261 55001 $





000
SAUS41 KLWX 072358
MTRDMH
METAR KDMH 072354Z AUTO 31/19 A2996 RMK AO1 SLP145 T03060189 10328
20306 55004





000
SAUS41 KLWX 072356
MTRNAK
METAR KNAK 072354Z AUTO VRB04KT 6SM HZ CLR 28/21 A2998 RMK AO2
SLP154 T02830206 10311 20283 55001





000
SAUS41 KLWX 072326
MTRRSP
METAR KRSP 072254Z AUTO 6SM HZ CLR 25/19 A3005 RMK AO2 SLP167
T02500189 $





000
SAUS41 KLWX 072300
MTRRYT
METAR KRYT 072253Z AUTO VRB04KT 7SM CLR 28/20 A2998 RMK AO2 SLP137
T02830200 $





000
SAUS41 KLWX 072300
MTRRYT
METAR KRYT 072253Z AUTO VRB04KT 7SM CLR 28/20 A2998 RMK AO2 SLP137
T02830200 $





000
SAUS41 KLWX 072258
MTRDMH
METAR KDMH 072254Z AUTO 31/18 A2995 RMK AO1 SLP142 T03110183





000
SAUS41 KLWX 072258
MTRDMH
METAR KDMH 072254Z AUTO 31/18 A2995 RMK AO1 SLP142 T03110183





000
SAUS41 KLWX 072255
MTRNAK
METAR KNAK 072254Z AUTO VRB04KT 7SM CLR 30/20 A2998 RMK AO2 SLP153
T03000200





000
SAUS41 KLWX 072255
MTRNAK
METAR KNAK 072254Z AUTO VRB04KT 7SM CLR 30/20 A2998 RMK AO2 SLP153
T03000200





000
SAUS41 KLWX 072226
MTRRSP
METAR KRSP 072154Z AUTO 6SM HZ CLR 26/19 A3005 RMK AO2 SLP167
T02610194 $





000
SAUS41 KLWX 072200
MTRRYT
METAR KRYT 072153Z AUTO 24006KT 7SM CLR 28/20 A2998 RMK AO2 SLP139
T02830200 $





000
SAUS41 KLWX 072158
MTRDMH
METAR KDMH 072154Z AUTO 32/17 A2995 RMK AO1 SLP141 T03220172





000
SAUS41 KLWX 072155
MTRNAK
METAR KNAK 072154Z AUTO 20006KT 8SM CLR 30/21 A2998 RMK AO2 SLP153
T03000206





000
SAUS41 KLWX 072155
MTRNAK
METAR KNAK 072154Z AUTO 20006KT 8SM CLR 30/21 A2998 RMK AO2 SLP153
T03000206





000
SAUS41 KLWX 072126
MTRRSP
METAR KRSP 072054Z AUTO 6SM HZ CLR 27/19 A3006 RMK AO2 SLP168
T02670194 56009 $





000
SAUS41 KLWX 072100
MTRRYT
METAR KRYT 072053Z AUTO 23006KT 7SM CLR 29/20 A2999 RMK AO2 SLP141
T02890200 56013 $





000
SAUS41 KLWX 072100
MTRRYT
METAR KRYT 072053Z AUTO 23006KT 7SM CLR 29/20 A2999 RMK AO2 SLP141
T02890200 56013 $





000
SAUS41 KLWX 072058
MTRDMH
METAR KDMH 072054Z AUTO 32/19 A2997 RMK AO1 SLP149 T03220189 56017





000
SAUS41 KLWX 072055
MTRNAK
METAR KNAK 072054Z AUTO VRB06KT 9SM FEW049 SCT060 31/20 A2998 RMK
AO2 SLP155 T03060200 56013





000
SAUS41 KLWX 072055
MTRNAK
METAR KNAK 072054Z AUTO VRB06KT 9SM FEW049 SCT060 31/20 A2998 RMK
AO2 SLP155 T03060200 56013





000
SAUS41 KLWX 072026
MTRRSP
METAR KRSP 071954Z AUTO 6SM HZ FEW029 SCT036 26/19 A3006 RMK AO2
SLP171 T02610194 $





000
SAUS41 KLWX 072000
MTRRYT
METAR KRYT 071953Z AUTO VRB03KT 7SM BKN045 29/19 A3000 RMK AO2
SLP144 T02890194 $





000
SAUS41 KLWX 071958
MTRDMH
METAR KDMH 071954Z AUTO 32/19 A2999 RMK AO1 SLP153 T03220189





000
SAUS41 KLWX 071955
MTRNAK
METAR KNAK 071954Z AUTO 18009KT 9SM CLR 29/22 A2999 RMK AO2 SLP156
T02940222





000
SAUS41 KLWX 071926
MTRRSP
METAR KRSP 071854Z AUTO 6SM HZ SCT031 SCT036 BKN046 27/19 A3007 RMK
AO2 SLP172 T02670194 $





000
SAUS41 KLWX 071900
MTRRYT
METAR KRYT 071853Z AUTO VRB04KT 7SM SCT043 SCT050 29/19 A3001 RMK
AO2 SLP149 T02890194 $





000
SAUS41 KLWX 071858
MTRDMH
METAR KDMH 071854Z AUTO 32/19 A3001 RMK AO1 SLP161 T03170189





000
SAUS41 KLWX 071855
MTRNAK
METAR KNAK 071854Z AUTO 17011KT 10SM FEW046 29/22 A3000 RMK AO2
SLP162 T02940222





000
SAUS41 KLWX 071855
MTRNAK
METAR KNAK 071854Z AUTO 17011KT 10SM FEW046 29/22 A3000 RMK AO2
SLP162 T02940222





000
SAUS41 KLWX 071826
MTRRSP
METAR KRSP 071754Z AUTO 6SM HZ SCT031 26/19 A3008 RMK AO2 SLP178
T02560189 10267 20211 58009 $





000
SAUS41 KLWX 071826
MTRRSP
METAR KRSP 071754Z AUTO 6SM HZ SCT031 26/19 A3008 RMK AO2 SLP178
T02560189 10267 20211 58009 $





000
SAUS41 KLWX 071800
MTRRYT
METAR KRYT 071753Z AUTO 21006KT 7SM FEW037 28/19 A3003 RMK AO2
SLP156 T02830194 10283 20233 58009 $





000
SAUS41 KLWX 071758
MTRDMH
METAR KDMH 071754Z AUTO 31/19 A3002 RMK AO1 SLP166 T03110194 10311
20244 56015





000
SAUS41 KLWX 071758
MTRDMH
METAR KDMH 071754Z AUTO 31/19 A3002 RMK AO1 SLP166 T03110194 10311
20244 56015





000
SAUS41 KLWX 071755
MTRNAK
METAR KNAK 071754Z AUTO 14013KT 10SM FEW049 28/23 A3002 RMK AO2
SLP167 T02830233 10294 20239 55008





000
SAUS41 KLWX 071755
MTRNAK
METAR KNAK 071754Z AUTO 14013KT 10SM FEW049 28/23 A3002 RMK AO2
SLP167 T02830233 10294 20239 55008





000
SAUS41 KLWX 071726
MTRRSP
METAR KRSP 071654Z AUTO 6SM HZ FEW026 26/19 A3010 RMK AO2 SLP184
T02560194 $





000
SAUS41 KLWX 071700
MTRRYT
METAR KRYT 071653Z AUTO 00000KT 7SM FEW031 28/20 A3004 RMK AO2
SLP160 T02780200 $





000
SAUS41 KLWX 071700
MTRRYT
METAR KRYT 071653Z AUTO 00000KT 7SM FEW031 28/20 A3004 RMK AO2
SLP160 T02780200 $





000
SAUS41 KLWX 071658
MTRDMH
METAR KDMH 071654Z AUTO 31/19 A3004 RMK AO1 SLP171 T03060194





000
SAUS41 KLWX 071655
MTRNAK
METAR KNAK 071654Z AUTO 15008KT 100V160 9SM FEW028 BKN037 BKN050
27/23 A3002 RMK AO2 SLP167 T02720233





000
SAUS41 KLWX 071655
MTRNAK
METAR KNAK 071654Z AUTO 15008KT 100V160 9SM FEW028 BKN037 BKN050
27/23 A3002 RMK AO2 SLP167 T02720233





000
SAUS41 KLWX 071626
MTRRSP
METAR KRSP 071554Z AUTO 6SM HZ CLR 24/19 A3011 RMK AO2 SLP188
T02440194 $





000
SAUS41 KLWX 071600
MTRRYT
METAR KRYT 071553Z AUTO VRB06KT 7SM SCT027 27/20 A3006 RMK AO2
SLP165 T02670200 $





000
SAUS41 KLWX 071558
MTRDMH
METAR KDMH 071554Z AUTO 29/20 A3005 RMK AO1 SLP175 T02940200





000
SAUS41 KLWX 071555
MTRNAK
METAR KNAK 071554Z AUTO 13010KT 9SM FEW027 26/23 A3004 RMK AO2
SLP174 T02610233





000
SAUS41 KLWX 071526
MTRRSP
METAR KRSP 071454Z AUTO 6SM HZ FEW019 24/19 A3011 RMK AO2 SLP188
T02440194 56012 $





000
SAUS41 KLWX 071500
MTRRYT
METAR KRYT 071453Z AUTO 00000KT 9SM BKN110 26/20 A3006 RMK AO2
SLP166 T02560200 56002 $





000
SAUS41 KLWX 071458
MTRDMH
METAR KDMH 071454Z AUTO 28/21 A3007 RMK AO1 SLP181 T02830211 50000





000
SAUS41 KLWX 071455
MTRNAK
METAR KNAK 071454Z AUTO 13007KT 9SM CLR 26/22 A3005 RMK AO2 SLP176
T02560222 58003





000
SAUS41 KLWX 071455
MTRNAK
METAR KNAK 071454Z AUTO 13007KT 9SM CLR 26/22 A3005 RMK AO2 SLP176
T02560222 58003





000
SAUS41 KLWX 071426
MTRRSP
METAR KRSP 071354Z AUTO 7SM OVC095 23/18 A3012 RMK AO2 SLP286
T02280183 $





000
SAUS41 KLWX 071426
MTRRSP
METAR KRSP 071354Z AUTO 7SM OVC095 23/18 A3012 RMK AO2 SLP286
T02280183 $





000
SAUS41 KLWX 071400
MTRRYT
METAR KRYT 071353Z AUTO 00000KT 9SM BKN100 24/19 A3006 RMK AO2
SLP168 T02440194 $





000
SAUS41 KLWX 071400
MTRRYT
METAR KRYT 071353Z AUTO 00000KT 9SM BKN100 24/19 A3006 RMK AO2
SLP168 T02440194 $





000
SAUS41 KLWX 071358
MTRDMH
METAR KDMH 071354Z AUTO 27/22 A3007 RMK AO1 SLP184 T02720222





000
SAUS41 KLWX 071358
MTRDMH
METAR KDMH 071354Z AUTO 27/22 A3007 RMK AO1 SLP184 T02720222





000
SAUS41 KLWX 071355
MTRNAK
METAR KNAK 071354Z AUTO 00000KT 10SM FEW016 27/22 A3005 RMK AO2
SLP178 T02670217





000
SAUS41 KLWX 071355
MTRNAK
METAR KNAK 071354Z AUTO 00000KT 10SM FEW016 27/22 A3005 RMK AO2
SLP178 T02670217





000
SAUS41 KLWX 071342
MTRNAK
SPECI KNAK 071341Z AUTO 29005KT 9SM SCT014 26/22 A3006 RMK AO2
T02610217





000
SAUS41 KLWX 071326
MTRRSP
METAR KRSP 071254Z AUTO 6SM HZ OVC090 22/18 A3013 RMK AO2 PRESFR
SLP196 T02170183 $





000
SAUS41 KLWX 071326
MTRRSP
METAR KRSP 071254Z AUTO 6SM HZ OVC090 22/18 A3013 RMK AO2 PRESFR
SLP196 T02170183 $





000
SAUS41 KLWX 071300
MTRRYT
METAR KRYT 071253Z AUTO 00000KT 10SM BKN095 24/20 A3006 RMK AO2
SLP165 T02390200 $





000
SAUS41 KLWX 071300
MTRRYT
METAR KRYT 071253Z AUTO 00000KT 10SM BKN095 24/20 A3006 RMK AO2
SLP165 T02390200 $





000
SAUS41 KLWX 071258
MTRDMH
METAR KDMH 071254Z AUTO 26/22 A3007 RMK AO1 SLP183 T02560217





000
SAUS41 KLWX 071258
MTRDMH
METAR KDMH 071254Z AUTO 26/22 A3007 RMK AO1 SLP183 T02560217





000
SAUS41 KLWX 071255
MTRNAK
METAR KNAK 071254Z AUTO 27006KT 8SM OVC014 24/22 A3006 RMK AO2
SLP181 T02440217





000
SAUS41 KLWX 071255
MTRNAK
METAR KNAK 071254Z AUTO 27006KT 8SM OVC014 24/22 A3006 RMK AO2
SLP181 T02440217





000
SAUS41 KLWX 071226
MTRRSP
METAR KRSP 071154Z AUTO 7SM CLR 21/18 A3015 RMK AO2 SLP202 70045
T02110183 10217 20194 53027 $





000
SAUS41 KLWX 071226
MTRRSP
METAR KRSP 071154Z AUTO 7SM CLR 21/18 A3015 RMK AO2 SLP202 70045
T02110183 10217 20194 53027 $





000
SAUS41 KLWX 071200
MTRRYT
METAR KRYT 071153Z AUTO 25006KT 10SM FEW048 23/19 A3007 RMK AO2
SLP168 70025 T02330194 10233 20200 51015 $





000
SAUS41 KLWX 071200
MTRRYT
METAR KRYT 071153Z AUTO 25006KT 10SM FEW048 23/19 A3007 RMK AO2
SLP168 70025 T02330194 10233 20200 51015 $





000
SAUS41 KLWX 071158
MTRDMH
METAR KDMH 071154Z AUTO 25/22 A3007 RMK AO1 SLP181 70050 T02500217
10250 20228 53016





000
SAUS41 KLWX 071158
MTRDMH
METAR KDMH 071154Z AUTO 25/22 A3007 RMK AO1 SLP181 70050 T02500217
10250 20228 53016





000
SAUS41 KLWX 071155
MTRNAK
METAR KNAK 071154Z AUTO 25005KT 8SM BKN011 24/22 A3005 RMK AO2
SLP179 70001 T02390217 10244 20228 53014





000
SAUS41 KLWX 071155
MTRNAK
METAR KNAK 071154Z AUTO 25005KT 8SM BKN011 24/22 A3005 RMK AO2
SLP179 70001 T02390217 10244 20228 53014





000
SAUS41 KLWX 071126
MTRRSP
METAR KRSP 071054Z AUTO 8SM FEW019 21/19 A3010 RMK AO2 SLP184
T02060189 $





000
SAUS41 KLWX 071116
MTRNAK
SPECI KNAK 071114Z AUTO VRB05KT 7SM SCT009 23/21 A3003 RMK AO2
T02330211





000
SAUS41 KLWX 071100
MTRRYT
METAR KRYT 071053Z AUTO 00000KT 10SM CLR 22/20 A3005 RMK AO2 SLP165
T02220200 $





000
SAUS41 KLWX 071100
MTRRYT
METAR KRYT 071053Z AUTO 00000KT 10SM CLR 22/20 A3005 RMK AO2 SLP165
T02220200 $





000
SAUS41 KLWX 071058
MTRDMH
METAR KDMH 071054Z AUTO 24/22 A3004 RMK AO1 SLP171 T02390217





000
SAUS41 KLWX 071058
MTRDMH
METAR KDMH 071054Z AUTO 24/22 A3004 RMK AO1 SLP171 T02390217





000
SAUS41 KLWX 071055
MTRNAK
METAR KNAK 071054Z AUTO 28003KT 6SM BR BKN009 23/22 A3003 RMK AO2
SLP170 T02330217





000
SAUS41 KLWX 071049
MTRNAK
SPECI KNAK 071047Z AUTO 25003KT 6SM BR BKN008 23/21 A3003 RMK AO2
T02330211





000
SAUS41 KLWX 071032
MTRNAK
SPECI KNAK 071030Z AUTO 00000KT 6SM BR SCT008 23/22 A3003 RMK AO2
T02280217





000
SAUS41 KLWX 071032
MTRNAK
SPECI KNAK 071030Z AUTO 00000KT 6SM BR SCT008 23/22 A3003 RMK AO2
T02280217





000
SAUS41 KLWX 071025
MTRRSP
METAR KRSP 070954Z AUTO 6SM BR CLR 19/19 A3007 RMK AO2 SLP176
T01940189 $





000
SAUS41 KLWX 071025
MTRRSP
METAR KRSP 070954Z AUTO 6SM BR CLR 19/19 A3007 RMK AO2 SLP176
T01940189 $





000
SAUS41 KLWX 071000
MTRRYT
METAR KRYT 070953Z AUTO 00000KT 5SM BR OVC090 21/20 A3003 RMK AO2
SLP158 T02110200 $





000
SAUS41 KLWX 070958
MTRDMH
METAR KDMH 070954Z AUTO 23/22 A3003 RMK AO1 SLP169 T02280217





000
SAUS41 KLWX 070955
MTRNAK
METAR KNAK 070954Z AUTO 28003KT 8SM BKN009 23/22 A3003 RMK AO2
SLP169 T02330217





000
SAUS41 KLWX 070955
MTRNAK
METAR KNAK 070954Z AUTO 28003KT 8SM BKN009 23/22 A3003 RMK AO2
SLP169 T02330217





000
SAUS41 KLWX 070941
MTRNAK
SPECI KNAK 070940Z AUTO 00000KT 8SM FEW009 23/21 A3002 RMK AO2
T02280211





000
SAUS41 KLWX 070932
MTRRSP
SPECI KRSP 070901Z AUTO 6SM BR SCT001 BKN080 20/19 A3006 RMK AO2 $





000
SAUS41 KLWX 070926
MTRRSP
METAR KRSP 070854Z AUTO 4SM BR BKN001 OVC080 20/19 A3006 RMK AO2
SLP172 T02000194 53002 $





000
SAUS41 KLWX 070900
MTRRYT
METAR KRYT 070853Z AUTO 00000KT 8SM BKN075 OVC090 21/20 A3002 RMK
AO2 SLP152 T02110200 58002 $





000
SAUS41 KLWX 070900
MTRRYT
METAR KRYT 070853Z AUTO 00000KT 8SM BKN075 OVC090 21/20 A3002 RMK
AO2 SLP152 T02110200 58002 $





000
SAUS41 KLWX 070858
MTRDMH
METAR KDMH 070854Z AUTO 23/22 A3002 RMK AO1 SLP166 T02280217 58000





000
SAUS41 KLWX 070855
MTRNAK
METAR KNAK 070854Z AUTO 00000KT 9SM CLR 23/22 A3001 RMK AO2 SLP165
T02330217 55001





000
SAUS41 KLWX 070848
MTRRSP
SPECI KRSP 070817Z AUTO 4SM BR BKN001 OVC055 20/19 A3006 RMK AO2 $





000
SAUS41 KLWX 070848
MTRRSP
SPECI KRSP 070817Z AUTO 4SM BR BKN001 OVC055 20/19 A3006 RMK AO2 $





000
SAUS41 KLWX 070839
MTRRSP
SPECI KRSP 070808Z AUTO 2SM BR OVC001 21/19 A3006 RMK AO2 $





000
SAUS41 KLWX 070839
MTRRSP
SPECI KRSP 070808Z AUTO 2SM BR OVC001 21/19 A3006 RMK AO2 $





000
SAUS41 KLWX 070826
MTRRSP
METAR KRSP 070754Z AUTO 1/2SM FG VV001 20/19 A3006 RMK AO2 SLP170
T02000194 $





000
SAUS41 KLWX 070822
MTRRSP
SPECI KRSP 070750Z AUTO 1/2SM FG VV001 20/19 A3006 RMK AO2 $





000
SAUS41 KLWX 070822
MTRRSP
SPECI KRSP 070750Z AUTO 1/2SM FG VV001 20/19 A3006 RMK AO2 $





000
SAUS41 KLWX 070812
MTRRSP
SPECI KRSP 070740Z AUTO 1 3/4SM BR OVC002 20/19 A3005 RMK AO2 $





000
SAUS41 KLWX 070800
MTRRYT
METAR KRYT 070753Z AUTO 00000KT 6SM BR FEW046 21/19 A3002 RMK AO2
SLP154 T02060194 $





000
SAUS41 KLWX 070757
MTRDMH
METAR KDMH 070754Z AUTO 23/22 A3003 RMK AO1 SLP168 T02280217





000
SAUS41 KLWX 070755
MTRNAK
METAR KNAK 070754Z AUTO VRB03KT 10SM CLR 23/22 A3001 RMK AO2 SLP164
T02330217





000
SAUS41 KLWX 070750
MTRRSP
SPECI KRSP 070718Z AUTO 3SM BR OVC002 20/19 A3005 RMK AO2 $





000
SAUS41 KLWX 070746
MTRRSP
SPECI KRSP 070714Z AUTO 1 3/4SM BR OVC002 20/19 A3005 RMK AO2 $





000
SAUS41 KLWX 070732
MTRRSP
SPECI KRSP 070701Z AUTO 2SM BR OVC002 21/19 A3005 RMK AO2 $





000
SAUS41 KLWX 070732
MTRRSP
SPECI KRSP 070701Z AUTO 2SM BR OVC002 21/19 A3005 RMK AO2 $





000
SAUS41 KLWX 070726
MTRRSP
METAR KRSP 070654Z AUTO 3/4SM BR VV002 21/19 A3006 RMK AO2 SLP169
T02060194 $





000
SAUS41 KLWX 070701
MTRRSP
SPECI KRSP 070630Z AUTO 1/4SM FG VV001 21/20 A3006 RMK AO2 $





000
SAUS41 KLWX 070700
MTRRYT
METAR KRYT 070653Z AUTO 00000KT 6SM BR FEW030 SCT036 21/19 A3003 RMK
AO2 SLP155 T02060194 $





000
SAUS41 KLWX 070658
MTRDMH
METAR KDMH 070654Z AUTO 23/22 A3003 RMK AO1 SLP167 T02280217





000
SAUS41 KLWX 070658
MTRDMH
METAR KDMH 070654Z AUTO 23/22 A3003 RMK AO1 SLP167 T02280217





000
SAUS41 KLWX 070655
MTRNAK
METAR KNAK 070654Z AUTO 20006KT 10SM SCT023 24/21 A3001 RMK AO2
SLP165 T02440211





000
SAUS41 KLWX 070653
MTRRSP
SPECI KRSP 070621Z AUTO 1 3/4SM BR OVC003 21/20 A3006 RMK AO2 $





000
SAUS41 KLWX 070626
MTRRSP
METAR KRSP 070554Z AUTO 5SM BR OVC003 21/19 A3005 RMK AO2 SLP262
T02060194 10217 20200 56011 $





000
SAUS41 KLWX 070614
MTRRYT
SPECI KRYT 070607Z AUTO 00000KT 5SM BR SCT004 BKN034 20/19 A3003 RMK
AO2 $





000
SAUS41 KLWX 070600
MTRRYT
METAR KRYT 070553Z AUTO 00000KT 4SM BR BKN002 BKN036 20/19 A3003 RMK
AO2 SLP157 60001 T02000189 10239 20200 55005 $





000
SAUS41 KLWX 070600
MTRRYT
METAR KRYT 070553Z AUTO 00000KT 4SM BR BKN002 BKN036 20/19 A3003 RMK
AO2 SLP157 60001 T02000189 10239 20200 55005 $





000
SAUS41 KLWX 070559
MTRDMH
METAR KDMH 070554Z AUTO 23/22 A3002 RMK AO1 SLP166 60050 T02330217
10289 20228 58005





000
SAUS41 KLWX 070559
MTRDMH
METAR KDMH 070554Z AUTO 23/22 A3002 RMK AO1 SLP166 60050 T02330217
10289 20228 58005





000
SAUS41 KLWX 070556
MTRNAK
METAR KNAK 070554Z AUTO 18008KT 10SM CLR 24/21 A3002 RMK AO2 SLP166
60001 T02440211 10272 20239 58004





000
SAUS41 KLWX 070556
MTRNAK
METAR KNAK 070554Z AUTO 18008KT 10SM CLR 24/21 A3002 RMK AO2 SLP166
60001 T02440211 10272 20239 58004





000
SAUS41 KLWX 070550
MTRRYT
SPECI KRYT 070543Z AUTO 00000KT 4SM BR OVC002 21/19 A3003 RMK AO2 $





000
SAUS41 KLWX 070550
MTRRYT
SPECI KRYT 070543Z AUTO 00000KT 4SM BR OVC002 21/19 A3003 RMK AO2 $





000
SAUS41 KLWX 070549
MTRRSP
SPECI KRSP 070517Z AUTO 6SM BR BKN005 20/19 A3005 RMK AO2 CIG
002V007 $





000
SAUS41 KLWX 070549
MTRRSP
SPECI KRSP 070517Z AUTO 6SM BR BKN005 20/19 A3005 RMK AO2 CIG
002V007 $





000
SAUS41 KLWX 070534
MTRRYT
SPECI KRYT 070528Z AUTO 00000KT 2 1/2SM BR BKN002 21/19 A3002 RMK
AO2 $





000
SAUS41 KLWX 070534
MTRRYT
SPECI KRYT 070528Z AUTO 00000KT 2 1/2SM BR BKN002 21/19 A3002 RMK
AO2 $





000
SAUS41 KLWX 070525
MTRRSP
METAR KRSP 070454Z AUTO 6SM BR SCT001 20/19 A3005 RMK AO2 SLP170
T02000194 402560194 $





000
SAUS41 KLWX 070525
MTRRSP
METAR KRSP 070454Z AUTO 6SM BR SCT001 20/19 A3005 RMK AO2 SLP170
T02000194 402560194 $





000
SAUS41 KLWX 070519
MTRRYT
SPECI KRYT 070518Z AUTO 00000KT 4SM BR BKN005 21/19 A3003 RMK AO2 $





000
SAUS41 KLWX 070519
MTRRYT
SPECI KRYT 070518Z AUTO 00000KT 4SM BR BKN005 21/19 A3003 RMK AO2 $





000
SAUS41 KLWX 070503
MTRRSP
SPECI KRSP 070431Z AUTO 4SM BR OVC001 21/19 A3006 RMK AO2 $





000
SAUS41 KLWX 070503
MTRRSP
SPECI KRSP 070431Z AUTO 4SM BR OVC001 21/19 A3006 RMK AO2 $





000
SAUS41 KLWX 070500
MTRRYT
METAR KRYT 070453Z AUTO 00000KT 6SM BR BKN007 21/20 A3003 RMK AO2
SLP156 T02110200 402830206 $





000
SAUS41 KLWX 070500
MTRRYT
METAR KRYT 070453Z AUTO 00000KT 6SM BR BKN007 21/20 A3003 RMK AO2
SLP156 T02110200 402830206 $





000
SAUS41 KLWX 070458
MTRDMH
METAR KDMH 070454Z AUTO 23/22 A3003 RMK AO1 SLP167 T02330217
403000228





000
SAUS41 KLWX 070455
MTRRSP
SPECI KRSP 070423Z AUTO 2SM BR OVC001 21/20 A3006 RMK AO2 $





000
SAUS41 KLWX 070455
MTRNAK
METAR KNAK 070454Z AUTO 19006KT 10SM CLR 24/21 A3002 RMK AO2 SLP167
T02440206 402940239





000
SAUS41 KLWX 070426
MTRRSP
METAR KRSP 070354Z AUTO 1/2SM FG VV001 21/20 A3006 RMK AO2 SLP174
T02060200 $





000
SAUS41 KLWX 070426
MTRRSP
METAR KRSP 070354Z AUTO 1/2SM FG VV001 21/20 A3006 RMK AO2 SLP174
T02060200 $





000
SAUS41 KLWX 070425
MTRRYT
SPECI KRYT 070418Z AUTO 00000KT 3SM BR SCT003 OVC007 21/20 A3003 RMK
AO2 $





000
SAUS41 KLWX 070416
MTRRYT
SPECI KRYT 070409Z AUTO 00000KT 2 1/2SM BR BKN003 BKN007 21/20 A3003
RMK AO2 $





000
SAUS41 KLWX 070416
MTRRYT
SPECI KRYT 070409Z AUTO 00000KT 2 1/2SM BR BKN003 BKN007 21/20 A3003
RMK AO2 $





000
SAUS41 KLWX 070404
MTRRYT
SPECI KRYT 070357Z AUTO 00000KT 2 1/2SM BR FEW003 BKN007 21/20 A3004
RMK AO2 $





000
SAUS41 KLWX 070358
MTRDMH
METAR KDMH 070354Z AUTO 24/23 A3004 RMK AO1 SLP170 T02390228





000
SAUS41 KLWX 070356
MTRNAK
METAR KNAK 070354Z AUTO 18005KT 10SM FEW080 24/21 A3003 RMK AO2
SLP170 T02440211





000
SAUS41 KLWX 070336
MTRRYT
SPECI KRYT 070329Z AUTO 00000KT 3SM BR BKN002 21/20 A3004 RMK AO2 $





000
SAUS41 KLWX 070329
MTRRYT
SPECI KRYT 070322Z AUTO 00000KT 1SM BR BKN002 BKN110 21/20 A3004 RMK
AO2 $





000
SAUS41 KLWX 070329
MTRRYT
SPECI KRYT 070322Z AUTO 00000KT 1SM BR BKN002 BKN110 21/20 A3004 RMK
AO2 $





000
SAUS41 KLWX 070326
MTRRSP
METAR KRSP 070254Z AUTO 1/2SM FG VV001 21/20 A3008 RMK AO2 SLP180
T02060200 53003 $





000
SAUS41 KLWX 070313
MTRRYT
SPECI KRYT 070305Z AUTO 00000KT 1/2SM FG BKN002 BKN014 BKN110 21/20
A3004 RMK AO2 $





000
SAUS41 KLWX 070313
MTRRYT
SPECI KRYT 070305Z AUTO 00000KT 1/2SM FG BKN002 BKN014 BKN110 21/20
A3004 RMK AO2 $





000
SAUS41 KLWX 070300
MTRRYT
METAR KRYT 070253Z AUTO 00000KT 4SM BR SCT002 SCT012 BKN049 22/21
A3004 RMK AO2 SLP161 60001 T02170206 53001 $





000
SAUS41 KLWX 070259
MTRDMH
METAR KDMH 070254Z AUTO 24/23 A3004 RMK AO1 SLP171 60050 T02390228
53007





000
SAUS41 KLWX 070255
MTRNAK
METAR KNAK 070254Z AUTO 18006KT 10SM CLR 25/21 A3003 RMK AO2 SLP170
60001 T02500211 53004





000
SAUS41 KLWX 070255
MTRNAK
METAR KNAK 070254Z AUTO 18006KT 10SM CLR 25/21 A3003 RMK AO2 SLP170
60001 T02500211 53004





000
SAUS41 KLWX 070226
MTRRSP
METAR KRSP 070154Z AUTO 3/4SM BR OVC002 21/21 A3008 RMK AO2 SLP177
T02110206 $





000
SAUS41 KLWX 070226
MTRRSP
METAR KRSP 070154Z AUTO 3/4SM BR OVC002 21/21 A3008 RMK AO2 SLP177
T02110206 $





000
SAUS41 KLWX 070223
MTRRSP
SPECI KRSP 070151Z AUTO 1 3/4SM BR OVC002 21/21 A3007 RMK AO2 $





000
SAUS41 KLWX 070213
MTRRYT
SPECI KRYT 070206Z AUTO 00000KT 4SM BR SCT002 SCT014 22/21 A3004 RMK
AO2 $





000
SAUS41 KLWX 070200
MTRNAK
METAR KNAK 070154Z AUTO 17006KT 10SM FEW024 SCT085 BKN110 26/23
A3002 RMK AO2 RAE31 SLP166 P0000 T02610228





000
SAUS41 KLWX 070200
MTRDMH
METAR KDMH 070154Z AUTO 23/22 A2999 RMK AO1 SLP156 P0050 T02330222





000
SAUS41 KLWX 070152
MTRRYT
SPECI KRYT 070151Z AUTO 00000KT 5SM BR FEW014 SCT023 22/21 A3004 RMK
AO2 RAB31E43 P0001 $





000
SAUS41 KLWX 070152
MTRRYT
SPECI KRYT 070151Z AUTO 00000KT 5SM BR FEW014 SCT023 22/21 A3004 RMK
AO2 RAB31E43 P0001 $





000
SAUS41 KLWX 070140
MTRRSP
SPECI KRSP 070108Z AUTO 6SM BR BKN002 21/20 A3006 RMK AO2 $





000
SAUS41 KLWX 070140
MTRRSP
SPECI KRSP 070108Z AUTO 6SM BR BKN002 21/20 A3006 RMK AO2 $





000
SAUS41 KLWX 070135
MTRRSP
SPECI KRSP 070104Z AUTO 6SM BR SCT002 BKN010 21/20 A3006 RMK AO2 CIG
006V011 $





000
SAUS41 KLWX 070131
MTRRYT
SPECI KRYT 070124Z AUTO 00000KT 9SM BKN020 BKN027 23/21 A3004 RMK
AO2 $





000
SAUS41 KLWX 070126
MTRRSP
METAR KRSP 070054Z AUTO 5SM BR BKN002 BKN010 BKN014 22/21 A3007 RMK
AO2 SLP175 T02170206 $





000
SAUS41 KLWX 070126
MTRRSP
METAR KRSP 070054Z AUTO 5SM BR BKN002 BKN010 BKN014 22/21 A3007 RMK
AO2 SLP175 T02170206 $





000
SAUS41 KLWX 070111
MTRRSP
SPECI KRSP 070040Z AUTO 6SM BR FEW002 SCT010 21/20 A3006 RMK AO2 $





000
SAUS41 KLWX 070100
MTRRYT
METAR KRYT 070053Z AUTO 00000KT 9SM FEW020 23/21 A3004 RMK AO2
SLP160 T02280211 $





000
SAUS41 KLWX 070100
MTRRYT
METAR KRYT 070053Z AUTO 00000KT 9SM FEW020 23/21 A3004 RMK AO2
SLP160 T02280211 $





000
SAUS41 KLWX 070058
MTRDMH
METAR KDMH 070054Z AUTO 27/21 A3003 RMK AO1 SLP168 T02670211





000
SAUS41 KLWX 070056
MTRNAK
METAR KNAK 070054Z AUTO 17009G17KT 7SM RA SCT044 BKN055 27/24 A3002
RMK AO2 RAB46 SLP168 P0001 T02720239





000
SAUS41 KLWX 070056
MTRNAK
METAR KNAK 070054Z AUTO 17009G17KT 7SM RA SCT044 BKN055 27/24 A3002
RMK AO2 RAB46 SLP168 P0001 T02720239





000
SAUS41 KLWX 070026
MTRRSP
METAR KRSP 062354Z AUTO 10SM SCT033 22/20 A3007 RMK AO2 SLP177 60018
T02170200 10256 20211 55011 $





000
SAUS41 KLWX 070026
MTRRSP
METAR KRSP 062354Z AUTO 10SM SCT033 22/20 A3007 RMK AO2 SLP177 60018
T02170200 10256 20211 55011 $





000
SAUS41 KLWX 070000
MTRRYT
METAR KRYT 062353Z AUTO 00000KT 10SM SCT040 24/22 A3004 RMK AO2
SLP161 60004 T02390217 10283 20233 58001 $





000
SAUS41 KLWX 062358
MTRDMH
METAR KDMH 062354Z AUTO 28/21 A3002 RMK AO1 SLP164 T02830211 10300
20272 58006





000
SAUS41 KLWX 062358
MTRDMH
METAR KDMH 062354Z AUTO 28/21 A3002 RMK AO1 SLP164 T02830211 10300
20272 58006





000
SAUS41 KLWX 062356
MTRNAK
METAR KNAK 062354Z AUTO 17008KT 10SM CLR 27/22 A3002 RMK AO2 SLP166
60000 T02720222 10294 20267 56007





000
SAUS41 KLWX 062356
MTRNAK
METAR KNAK 062354Z AUTO 17008KT 10SM CLR 27/22 A3002 RMK AO2 SLP166
60000 T02720222 10294 20267 56007





000
SAUS41 KLWX 062325
MTRRSP
METAR KRSP 062254Z AUTO 10SM BKN100 23/20 A3006 RMK AO2 SLP171
T02280200 $





000
SAUS41 KLWX 062300
MTRRYT
METAR KRYT 062253Z AUTO 00000KT 10SM SCT075 24/21 A3004 RMK AO2
TSB01E16RAB2155E11 SLP161 P0000 T02440211 $





000
SAUS41 KLWX 062300
MTRRYT
METAR KRYT 062253Z AUTO 00000KT 10SM SCT075 24/21 A3004 RMK AO2
TSB01E16RAB2155E11 SLP161 P0000 T02440211 $





000
SAUS41 KLWX 062258
MTRDMH
METAR KDMH 062254Z AUTO 29/21 A3003 RMK AO1 SLP167 T02940206





000
SAUS41 KLWX 062255
MTRNAK
METAR KNAK 062254Z AUTO 16012KT 10SM CLR 28/22 A3002 RMK AO2 SLP168
T02830222





000
SAUS41 KLWX 062255
MTRNAK
METAR KNAK 062254Z AUTO 16012KT 10SM CLR 28/22 A3002 RMK AO2 SLP168
T02830222





000
SAUS41 KLWX 062225
MTRRSP
METAR KRSP 062154Z AUTO 10SM FEW020 SCT070 BKN085 22/19 A3004 RMK
AO2 RAB05E22 SLP167 P0001 T02220194 $





000
SAUS41 KLWX 062223
MTRRYT
SPECI KRYT 062222Z AUTO 00000KT 10SM BKN070 OVC090 23/21 A3004 RMK
AO2 TSB01E16RAB2155E11 P0000 $





000
SAUS41 KLWX 062223
MTRRYT
SPECI KRYT 062222Z AUTO 00000KT 10SM BKN070 OVC090 23/21 A3004 RMK
AO2 TSB01E16RAB2155E11 P0000 $





000
SAUS41 KLWX 062214
MTRRYT
SPECI KRYT 062207Z AUTO 00000KT 10SM -TSRA FEW030 BKN075 OVC090
24/19 A3005 RMK AO2 TSB01RAB2155 P0000 $





000
SAUS41 KLWX 062200
MTRRYT
METAR KRYT 062153Z AUTO VRB04KT 10SM FEW031 BKN045 OVC060 25/19
A3005 RMK AO2 RAB08E18B44E53 SLP163 P0000 T02500194 $





000
SAUS41 KLWX 062158
MTRDMH
METAR KDMH 062154Z AUTO 29/21 A3003 RMK AO1 SLP167 T02940206





000
SAUS41 KLWX 062155
MTRNAK
METAR KNAK 062154Z AUTO 17010G16KT 10SM CLR 29/22 A3003 RMK AO2
SLP169 T02890217





000
SAUS41 KLWX 062125
MTRRSP
METAR KRSP 062054Z AUTO 10SM SCT022 25/21 A3011 RMK AO2 SLP282 60017
T02500206 58007 $





000
SAUS41 KLWX 062100
MTRRYT
METAR KRYT 062053Z AUTO 00000KT 10SM FEW030 28/21 A3005 RMK AO2
SLP161 60004 T02780206 56011 $





000
SAUS41 KLWX 062058
MTRDMH
METAR KDMH 062054Z AUTO 29/21 A3004 RMK AO1 SLP170 T02940211 58017





000
SAUS41 KLWX 062058
MTRDMH
METAR KDMH 062054Z AUTO 29/21 A3004 RMK AO1 SLP170 T02940211 58017





000
SAUS41 KLWX 062055
MTRNAK
METAR KNAK 062054Z AUTO 17009KT 10SM CLR 29/22 A3004 RMK AO2 SLP173
60000 T02890217 58015





000
SAUS41 KLWX 062055
MTRNAK
METAR KNAK 062054Z AUTO 17009KT 10SM CLR 29/22 A3004 RMK AO2 SLP173
60000 T02890217 58015





000
SAUS41 KLWX 062025
MTRRSP
METAR KRSP 061954Z AUTO 10SM FEW040 26/21 A3012 RMK AO2 SLP190
T02560206 $





000
SAUS41 KLWX 062016
MTRRYT
SPECI KRYT 062010Z AUTO 00000KT 10SM SCT021 SCT055 27/21 A3005 RMK
AO2 $





000
SAUS41 KLWX 062000
MTRRYT
METAR KRYT 061953Z VRB04KT 10SM FEW012 BKN021 BKN028 27/22 A3005 RMK
AO2 RAE08 SLP164 P0000 T02720222 $





000
SAUS41 KLWX 061958
MTRDMH
METAR KDMH 061954Z AUTO 29/22 A3005 RMK AO1 SLP175 T02940217





000
SAUS41 KLWX 061955
MTRNAK
METAR KNAK 061954Z AUTO 15012G18KT 10SM CLR 28/22 A3005 RMK AO2
RAE04 SLP178 P0000 T02830222





000
SAUS41 KLWX 061952
MTRRYT
SPECI KRYT 061948Z 00000KT 10SM FEW012 SCT021 BKN033 27/23 A3005 RMK
AO2 RAE08 P0000 $





000
SAUS41 KLWX 061933
MTRRYT
SPECI KRYT 061926Z 00000KT 10SM FEW010 SCT017 BKN021 26/23 A3006 RMK
AO2 RAE08 P0000 $





000
SAUS41 KLWX 061925
MTRRSP
METAR KRSP 061854Z AUTO 10SM FEW004 SCT017 25/22 A3013 RMK AO2
RAB1757E19 SLP292 P0017 T02500217 $





000
SAUS41 KLWX 061924
MTRRSP
SPECI KRSP 061852Z AUTO 10SM FEW004 SCT017 25/22 A3013 RMK AO2
RAB1757E19 P0017 $





000
SAUS41 KLWX 061924
MTRRSP
SPECI KRSP 061852Z AUTO 10SM FEW004 SCT017 25/22 A3013 RMK AO2
RAB1757E19 P0017 $





000
SAUS41 KLWX 061917
MTRRSP
SPECI KRSP 061845Z AUTO 10SM SCT004 SCT009 BKN018 24/22 A3012 RMK
AO2 RAB1757E19 PRESRR P0017 $





000
SAUS41 KLWX 061912
MTRRYT
SPECI KRYT 061905Z 00000KT 10SM -RA FEW027 BKN047 OVC070 24/23 A3008
RMK AO2 P0000 $





000
SAUS41 KLWX 061912
MTRRYT
SPECI KRYT 061905Z 00000KT 10SM -RA FEW027 BKN047 OVC070 24/23 A3008
RMK AO2 P0000 $





000
SAUS41 KLWX 061907
MTRRSP
SPECI KRSP 061836Z AUTO 6SM BR SCT004 BKN011 OVC028 24/22 A3010 RMK
AO2 RAB1757E19 P0017 $





000
SAUS41 KLWX 061902
MTRRSP
SPECI KRSP 061831Z AUTO 6SM BR BKN004 BKN007 OVC027 23/22 A3010 RMK
AO2 RAB1757E19 P0017 $





000
SAUS41 KLWX 061902
MTRRSP
SPECI KRSP 061831Z AUTO 6SM BR BKN004 BKN007 OVC027 23/22 A3010 RMK
AO2 RAB1757E19 P0017 $





000
SAUS41 KLWX 061900
MTRRYT
METAR KRYT 061853Z 00000KT 2SM RA BR FEW030 SCT050 BKN070 24/22
A3008 RMK AO2 VIS 1 1/4V5 RAE1757B45 SLP174 P0004 T02440222 $





000
SAUS41 KLWX 061900
MTRRYT
METAR KRYT 061853Z 00000KT 2SM RA BR FEW030 SCT050 BKN070 24/22
A3008 RMK AO2 VIS 1 1/4V5 RAE1757B45 SLP174 P0004 T02440222 $





000
SAUS41 KLWX 061858
MTRDMH
METAR KDMH 061854Z AUTO 28/21 A3007 RMK AO1 SLP183 T02780211





000
SAUS41 KLWX 061855
MTRNAK
METAR KNAK 061854Z AUTO 17008KT 7SM -RA FEW041 BKN080 OVC095 28/22
A3007 RMK AO2 RAB40 SLP184 P0000 T02780222





000
SAUS41 KLWX 061855
MTRNAK
METAR KNAK 061854Z AUTO 17008KT 7SM -RA FEW041 BKN080 OVC095 28/22
A3007 RMK AO2 RAB40 SLP184 P0000 T02780222





000
SAUS41 KLWX 061849
MTRRSP
SPECI KRSP 061818Z AUTO 5SM -RA BR FEW004 BKN007 OVC029 23/21 A3010
RMK AO2 RAB1757 PRESFR P0017 $





000
SAUS41 KLWX 061847
MTRRSP
SPECI KRSP 061816Z AUTO 2SM -RA BR SCT007 BKN015 OVC025 23/21 A3010
RMK AO2 RAB1757 PRESFR P0017 $





000
SAUS41 KLWX 061841
MTRRSP
SPECI KRSP 061810Z AUTO 1/2SM +RA FG SCT005 BKN015 BKN025 22/21
A3013 RMK AO2 RAB1757 P0017 $





000
SAUS41 KLWX 061841
MTRRSP
SPECI KRSP 061810Z AUTO 1/2SM +RA FG SCT005 BKN015 BKN025 22/21
A3013 RMK AO2 RAB1757 P0017 $





000
SAUS41 KLWX 061835
MTRRSP
SPECI KRSP 061804Z AUTO 3/4SM +RA BR BKN005 BKN013 OVC045 22/21
A3014 RMK AO2 RAB1757 P0012 $





000
SAUS41 KLWX 061832
MTRRSP
SPECI KRSP 061801Z AUTO 2 1/2SM RA BR BKN005 BKN013 BKN045 23/21
A3015 RMK AO2 RAB1757 CIG 002V008 P0004 $





000
SAUS41 KLWX 061825
MTRRSP
METAR KRSP 061754Z AUTO 10SM SCT007 BKN013 BKN019 24/21 A3014 RMK
AO2 RAE09 SLP200 P0003 60027 T02390211 10244 20194 56010 $





000
SAUS41 KLWX 061800
MTRRYT
METAR KRYT 061753Z AUTO 00000KT 6SM -RA SCT021 BKN032 OVC042 24/22
A3009 RMK AO2 RAE03B20 SLP179 P0006 60020 T02440217 10250 20222
58008 $





000
SAUS41 KLWX 061800
MTRRYT
METAR KRYT 061753Z AUTO 00000KT 6SM -RA SCT021 BKN032 OVC042 24/22
A3009 RMK AO2 RAE03B20 SLP179 P0006 60020 T02440217 10250 20222
58008 $





000
SAUS41 KLWX 061757
MTRDMH
METAR KDMH 061754Z AUTO 28/22 A3009 RMK AO1 SLP188 T02780217 10283
20244 58016





000
SAUS41 KLWX 061757
MTRDMH
METAR KDMH 061754Z AUTO 28/22 A3009 RMK AO1 SLP188 T02780217 10283
20244 58016





000
SAUS41 KLWX 061755
MTRNAK
METAR KNAK 061754Z AUTO 13013KT 10SM CLR 27/22 A3008 RMK AO2 SLP188
T02720222 10272 20239 58010





000
SAUS41 KLWX 061749
MTRRYT
SPECI KRYT 061742Z AUTO 00000KT 1SM RA BR SCT021 BKN034 OVC044 23/22
A3009 RMK AO2 RAE03B20 P0006 $





000
SAUS41 KLWX 061742
MTRRYT
SPECI KRYT 061735Z AUTO 00000KT 2 1/2SM -RA BR SCT021 BKN034 OVC065
24/22 A3010 RMK AO2 RAE03B20 P0002 $





000
SAUS41 KLWX 061741
MTRRSP
SPECI KRSP 061710Z AUTO 8SM SCT009 BKN017 BKN029 23/21 A3015 RMK AO2
RAE09 P0003 $





000
SAUS41 KLWX 061741
MTRRSP
SPECI KRSP 061710Z AUTO 8SM SCT009 BKN017 BKN029 23/21 A3015 RMK AO2
RAE09 P0003 $





000
SAUS41 KLWX 061736
MTRRSP
SPECI KRSP 061705Z AUTO 2SM -RA BR BKN009 BKN017 OVC046 22/21 A3015
RMK AO2 CIG 003V012 P0003 $





000
SAUS41 KLWX 061736
MTRRSP
SPECI KRSP 061705Z AUTO 2SM -RA BR BKN009 BKN017 OVC046 22/21 A3015
RMK AO2 CIG 003V012 P0003 $





000
SAUS41 KLWX 061726
MTRRSP
METAR KRSP 061654Z AUTO 3/4SM +RA BR BKN007 BKN015 OVC044 22/21
A3016 RMK AO2 RAE03B46 CIG 003V011 SLP208 P0010 T02170206 $





000
SAUS41 KLWX 061726
MTRRSP
METAR KRSP 061654Z AUTO 3/4SM +RA BR BKN007 BKN015 OVC044 22/21
A3016 RMK AO2 RAE03B46 CIG 003V011 SLP208 P0010 T02170206 $





000
SAUS41 KLWX 061721
MTRRSP
SPECI KRSP 061650Z AUTO 1 3/4SM RA BR SCT007 BKN012 OVC060 22/21
A3017 RMK AO2 RAE03B46 P0004 $





000
SAUS41 KLWX 061721
MTRRSP
SPECI KRSP 061650Z AUTO 1 3/4SM RA BR SCT007 BKN012 OVC060 22/21
A3017 RMK AO2 RAE03B46 P0004 $





000
SAUS41 KLWX 061712
MTRRYT
SPECI KRYT 061705Z AUTO 04003KT 7SM BKN018 BKN036 OVC055 24/22 A3011
RMK AO2 RAE03 P0000 $





000
SAUS41 KLWX 061712
MTRRYT
SPECI KRYT 061705Z AUTO 04003KT 7SM BKN018 BKN036 OVC055 24/22 A3011
RMK AO2 RAE03 P0000 $





000
SAUS41 KLWX 061709
MTRRSP
SPECI KRSP 061637Z AUTO 7SM BKN009 BKN015 OVC025 22/21 A3016 RMK AO2
RAE03 P0000 $





000
SAUS41 KLWX 061709
MTRRSP
SPECI KRSP 061637Z AUTO 7SM BKN009 BKN015 OVC025 22/21 A3016 RMK AO2
RAE03 P0000 $





000
SAUS41 KLWX 061705
MTRRYT
SPECI KRYT 061658Z AUTO 00000KT 2 1/2SM -RA FEW016 BKN024 OVC055
24/21 A3011 RMK AO2 P0000 $





000
SAUS41 KLWX 061658
MTRDMH
METAR KDMH 061654Z AUTO 27/22 A3011 RMK AO1 SLP196 T02720217





000
SAUS41 KLWX 061658
MTRDMH
METAR KDMH 061654Z AUTO 27/22 A3011 RMK AO1 SLP196 T02720217





000
SAUS41 KLWX 061656
MTRNAK
METAR KNAK 061654Z AUTO 13013KT 10SM FEW025 27/22 A3011 RMK AO2
SLP197 T02670217





000
SAUS41 KLWX 061653
MTRRYT
SPECI KRYT 061646Z AUTO 00000KT 1 1/2SM RA FEW020 BKN036 OVC070
24/22 A3011 RMK AO2 RAB18 P0006 $





000
SAUS41 KLWX 061635
MTRRSP
SPECI KRSP 061603Z AUTO 3SM BR FEW003 BKN018 OVC035 22/21 A3015 RMK
AO2 RAE03 P0000 $





000
SAUS41 KLWX 061635
MTRRSP
SPECI KRSP 061603Z AUTO 3SM BR FEW003 BKN018 OVC035 22/21 A3015 RMK
AO2 RAE03 P0000 $





000
SAUS41 KLWX 061626
MTRRSP
METAR KRSP 061554Z AUTO 2SM -RA BR SCT003 BKN015 OVC047 21/20 A3015
RMK AO2 RAB18 SLP205 P0009 T02110200 $





000
SAUS41 KLWX 061626
MTRRSP
METAR KRSP 061554Z AUTO 2SM -RA BR SCT003 BKN015 OVC047 21/20 A3015
RMK AO2 RAB18 SLP205 P0009 T02110200 $





000
SAUS41 KLWX 061624
MTRNAK
SPECI KNAK 061622Z AUTO 13012KT 10SM SCT024 27/22 A3011 RMK AO2
T02670217





000
SAUS41 KLWX 061621
MTRRSP
SPECI KRSP 061550Z AUTO 1SM -RA BR SCT003 BKN011 OVC049 21/20 A3016
RMK AO2 RAB18 P0009 $





000
SAUS41 KLWX 061621
MTRRYT
SPECI KRYT 061614Z AUTO 00000KT 8SM SCT016 SCT021 BKN055 24/21 A3012
RMK AO2 $





000
SAUS41 KLWX 061615
MTRRSP
SPECI KRSP 061544Z AUTO 3/4SM +RA BR BKN003 BKN008 OVC013 21/20
A3017 RMK AO2 RAB18 P0009 $





000
SAUS41 KLWX 061600
MTRRYT
METAR KRYT 061553Z AUTO 04003KT 7SM BKN017 OVC023 24/22 A3013 RMK
AO2 RAB14E34 SLP190 P0003 T02440217 $





000
SAUS41 KLWX 061600
MTRRYT
METAR KRYT 061553Z AUTO 04003KT 7SM BKN017 OVC023 24/22 A3013 RMK
AO2 RAB14E34 SLP190 P0003 T02440217 $





000
SAUS41 KLWX 061558
MTRDMH
METAR KDMH 061554Z AUTO 27/22 A3012 RMK AO1 SLP199 T02720222





000
SAUS41 KLWX 061555
MTRNAK
METAR KNAK 061554Z AUTO 14013KT 10SM BKN024 OVC030 26/22 A3011 RMK
AO2 SLP199 T02610222





000
SAUS41 KLWX 061552
MTRNAK
SPECI KNAK 061551Z AUTO 14013KT 10SM BKN024 OVC030 26/22 A3011 RMK
AO2





000
SAUS41 KLWX 061552
MTRNAK
SPECI KNAK 061551Z AUTO 14013KT 10SM BKN024 OVC030 26/22 A3011 RMK
AO2





000
SAUS41 KLWX 061545
MTRNAK
SPECI KNAK 061544Z AUTO 14013KT 10SM SCT023 OVC030 26/22 A3011 RMK
AO2 T02610217





000
SAUS41 KLWX 061542
MTRRSP
SPECI KRSP 061511Z AUTO 2SM BR OVC001 22/20 A3017 RMK AO2 $





000
SAUS41 KLWX 061536
MTRRYT
SPECI KRYT 061529Z AUTO 00000KT 3SM -RA BKN020 BKN038 OVC060 24/21
A3013 RMK AO2 RAB14 P0003 $





000
SAUS41 KLWX 061526
MTRRSP
METAR KRSP 061454Z AUTO 1/4SM FG BKN002 OVC006 21/20 A3018 RMK AO2
RAB31E52 SLP213 P0005 60005 T02060200 56003 $





000
SAUS41 KLWX 061526
MTRRSP
METAR KRSP 061454Z AUTO 1/4SM FG BKN002 OVC006 21/20 A3018 RMK AO2
RAB31E52 SLP213 P0005 60005 T02060200 56003 $





000
SAUS41 KLWX 061509
MTRRSP
SPECI KRSP 061437Z AUTO 1 3/4SM -RA BR BKN004 OVC015 21/19 A3017 RMK
AO2 RAB31 CIG 002V010 P0001 $





000
SAUS41 KLWX 061500
MTRRYT
METAR KRYT 061453Z AUTO 00000KT 9SM FEW022 BKN041 BKN090 25/20 A3012
RMK AO2 SLP187 T02500200 58005 $





000
SAUS41 KLWX 061458
MTRDMH
METAR KDMH 061454Z AUTO 26/22 A3013 RMK AO1 SLP203 T02610217 51002





000
SAUS41 KLWX 061458
MTRDMH
METAR KDMH 061454Z AUTO 26/22 A3013 RMK AO1 SLP203 T02610217 51002





000
SAUS41 KLWX 061456
MTRRSP
SPECI KRSP 061425Z AUTO 5SM BR BKN006 BKN015 OVC024 22/19 A3017 RMK
AO2 CIG 003V010 $





000
SAUS41 KLWX 061456
MTRRSP
SPECI KRSP 061425Z AUTO 5SM BR BKN006 BKN015 OVC024 22/19 A3017 RMK
AO2 CIG 003V010 $





000
SAUS41 KLWX 061455
MTRNAK
METAR KNAK 061454Z AUTO 12008KT 9SM SCT017 BKN023 OVC039 25/23 A3013
RMK AO2 SLP203 T02500228 51002





000
SAUS41 KLWX 061452
MTRNAK
SPECI KNAK 061451Z AUTO 12008KT 9SM BKN017 OVC039 25/23 A3013 RMK
AO2





000
SAUS41 KLWX 061452
MTRNAK
SPECI KNAK 061451Z AUTO 12008KT 9SM BKN017 OVC039 25/23 A3013 RMK
AO2





000
SAUS41 KLWX 061449
MTRRYT
SPECI KRYT 061442Z AUTO 00000KT 9SM FEW019 SCT025 BKN060 25/20 A3012
RMK AO2 $





000
SAUS41 KLWX 061446
MTRNAK
SPECI KNAK 061444Z AUTO 13008KT 9SM SCT017 OVC039 25/22 A3013 RMK
AO2 T02500222





000
SAUS41 KLWX 061446
MTRNAK
SPECI KNAK 061444Z AUTO 13008KT 9SM SCT017 OVC039 25/22 A3013 RMK
AO2 T02500222





000
SAUS41 KLWX 061441
MTRRYT
SPECI KRYT 061434Z AUTO 00000KT 9SM FEW017 BKN025 OVC095 24/19 A3012
RMK AO2 $





000
SAUS41 KLWX 061441
MTRRYT
SPECI KRYT 061434Z AUTO 00000KT 9SM FEW017 BKN025 OVC095 24/19 A3012
RMK AO2 $





000
SAUS41 KLWX 061436
MTRRSP
SPECI KRSP 061405Z AUTO 5SM HZ FEW006 BKN022 OVC080 22/19 A3017 RMK
AO2 $





000
SAUS41 KLWX 061436
MTRRSP
SPECI KRSP 061405Z AUTO 5SM HZ FEW006 BKN022 OVC080 22/19 A3017 RMK
AO2 $





000
SAUS41 KLWX 061425
MTRRSP
METAR KRSP 061354Z AUTO 6SM BR FEW006 BKN031 OVC080 22/19 A3018 RMK
AO2 SLP212 T02170194 $





000
SAUS41 KLWX 061425
MTRRSP
METAR KRSP 061354Z AUTO 6SM BR FEW006 BKN031 OVC080 22/19 A3018 RMK
AO2 SLP212 T02170194 $





000
SAUS41 KLWX 061400
MTRRYT
METAR KRYT 061353Z AUTO 00000KT 8SM FEW016 OVC050 24/20 A3014 RMK
AO2 SLP193 T02390200 $





000
SAUS41 KLWX 061400
MTRRYT
METAR KRYT 061353Z AUTO 00000KT 8SM FEW016 OVC050 24/20 A3014 RMK
AO2 SLP193 T02390200 $





000
SAUS41 KLWX 061358
MTRDMH
METAR KDMH 061354Z AUTO 26/22 A3013 RMK AO1 SLP203 T02560217





000
SAUS41 KLWX 061358
MTRDMH
METAR KDMH 061354Z AUTO 26/22 A3013 RMK AO1 SLP203 T02560217





000
SAUS41 KLWX 061356
MTRNAK
METAR KNAK 061354Z AUTO 15005KT 10SM SCT015 BKN024 25/22 A3013 RMK
AO2 SLP203 T02500217





000
SAUS41 KLWX 061356
MTRRSP
SPECI KRSP 061325Z AUTO 6SM HZ SCT005 BKN050 OVC090 22/19 A3018 RMK
AO2 $





000
SAUS41 KLWX 061341
MTRRSP
SPECI KRSP 061310Z AUTO 5SM BR SCT005 BKN025 BKN037 21/19 A3018 RMK
AO2 $





000
SAUS41 KLWX 061341
MTRRSP
SPECI KRSP 061310Z AUTO 5SM BR SCT005 BKN025 BKN037 21/19 A3018 RMK
AO2 $





000
SAUS41 KLWX 061334
MTRRYT
SPECI KRYT 061327Z AUTO 00000KT 8SM SCT013 BKN036 OVC050 24/20 A3014
RMK AO2 $





000
SAUS41 KLWX 061334
MTRRYT
SPECI KRYT 061327Z AUTO 00000KT 8SM SCT013 BKN036 OVC050 24/20 A3014
RMK AO2 $





000
SAUS41 KLWX 061325
MTRRSP
METAR KRSP 061254Z AUTO 4SM BR BKN003 BKN009 OVC025 21/19 A3019 RMK
AO2 CIG 002V007 SLP216 T02060189 $





000
SAUS41 KLWX 061309
MTRNAK
SPECI KNAK 061308Z AUTO 13008KT 9SM BKN021 24/22 A3012 RMK AO2
T02440222





000
SAUS41 KLWX 061258
MTRDMH
METAR KDMH 061254Z AUTO 25/21 A3013 RMK AO1 SLP202 T02500211





000
SAUS41 KLWX 061255
MTRNAK
METAR KNAK 061254Z AUTO 13009KT 8SM FEW022 24/22 A3012 RMK AO2
SLP201 T02440222





000
SAUS41 KLWX 061255
MTRNAK
METAR KNAK 061254Z AUTO 13009KT 8SM FEW022 24/22 A3012 RMK AO2
SLP201 T02440222





000
SAUS41 KLWX 061253
MTRRYT
METAR KRYT 061253Z AUTO 00000KT 4SM BR SCT012 BKN021 OVC031 23/21
A3014 RMK AO2 SLP194 T02280206 $





000
SAUS41 KLWX 061253
MTRRYT
METAR KRYT 061253Z AUTO 00000KT 4SM BR SCT012 BKN021 OVC031 23/21
A3014 RMK AO2 SLP194 T02280206 $





000
SAUS41 KLWX 061251
MTRRSP
SPECI KRSP 061220Z AUTO 3SM BR BKN003 OVC011 19/19 A3018 RMK AO2 $





000
SAUS41 KLWX 061251
MTRRSP
SPECI KRSP 061220Z AUTO 3SM BR BKN003 OVC011 19/19 A3018 RMK AO2 $





000
SAUS41 KLWX 061247
MTRRYT
SPECI KRYT 061240Z AUTO 00000KT 4SM BR SCT009 BKN015 OVC030 23/21
A3014 RMK AO2 $





000
SAUS41 KLWX 061247
MTRRYT
SPECI KRYT 061240Z AUTO 00000KT 4SM BR SCT009 BKN015 OVC030 23/21
A3014 RMK AO2 $





000
SAUS41 KLWX 061236
MTRRSP
SPECI KRSP 061205Z AUTO 1 1/4SM BR OVC001 20/19 A3018 RMK AO2 $





000
SAUS41 KLWX 061230
MTRRYT
SPECI KRYT 061223Z AUTO 00000KT 3SM BR BKN011 OVC017 22/21 A3014 RMK
AO2 CIG 008V014 $





000
SAUS41 KLWX 061225
MTRRSP
METAR KRSP 061154Z AUTO 1/4SM FG VV001 20/19 A3018 RMK AO2 SLP214
60003 70003 T02000194 10200 20194 53006 $





000
SAUS41 KLWX 061225
MTRRSP
METAR KRSP 061154Z AUTO 1/4SM FG VV001 20/19 A3018 RMK AO2 SLP214
60003 70003 T02000194 10200 20194 53006 $





000
SAUS41 KLWX 061212
MTRRYT
SPECI KRYT 061205Z AUTO 00000KT 2 1/2SM BR FEW010 BKN013 OVC085
22/21 A3014 RMK AO2 $





000
SAUS41 KLWX 061158
MTRDMH
METAR KDMH 061154Z AUTO 24/22 A3013 RMK AO1 SLP201 T02440222 10244
20233 51005





000
SAUS41 KLWX 061158
MTRDMH
METAR KDMH 061154Z AUTO 24/22 A3013 RMK AO1 SLP201 T02440222 10244
20233 51005





000
SAUS41 KLWX 061155
MTRNAK
METAR KNAK 061154Z AUTO 14007KT 9SM FEW012 SCT040 24/22 A3012 RMK
AO2 RAB13E29 SLP200 P0000 60001 70001 T02390217 10250 20239 51009





000
SAUS41 KLWX 061155
MTRNAK
METAR KNAK 061154Z AUTO 14007KT 9SM FEW012 SCT040 24/22 A3012 RMK
AO2 RAB13E29 SLP200 P0000 60001 70001 T02390217 10250 20239 51009





000
SAUS41 KLWX 061154
MTRRYT
METAR KRYT 061153Z AUTO 00000KT 2SM BR FEW013 BKN085 22/21 A3013 RMK
AO2 SLP192 60002 70002 T02220206 10222 20206 51007 $





000
SAUS41 KLWX 061154
MTRRYT
METAR KRYT 061153Z AUTO 00000KT 2SM BR FEW013 BKN085 22/21 A3013 RMK
AO2 SLP192 60002 70002 T02220206 10222 20206 51007 $





000
SAUS41 KLWX 061147
MTRRYT
SPECI KRYT 061140Z AUTO 00000KT 2SM BR SCT012 BKN029 OVC080 22/21
A3013 RMK AO2 $





000
SAUS41 KLWX 061138
MTRRYT
SPECI KRYT 061131Z AUTO 00000KT 2 1/2SM BR FEW014 SCT023 BKN080
22/21 A3013 RMK AO2 $





000
SAUS41 KLWX 061138
MTRRYT
SPECI KRYT 061131Z AUTO 00000KT 2 1/2SM BR FEW014 SCT023 BKN080
22/21 A3013 RMK AO2 $





000
SAUS41 KLWX 061125
MTRRSP
METAR KRSP 061054Z AUTO M1/4SM FG VV001 20/19 A3017 RMK AO2 SLP209
T02000194 $





000
SAUS41 KLWX 061125
MTRRSP
METAR KRSP 061054Z AUTO M1/4SM FG VV001 20/19 A3017 RMK AO2 SLP209
T02000194 $





000
SAUS41 KLWX 061122
MTRRYT
SPECI KRYT 061115Z AUTO 00000KT 2SM BR FEW007 SCT010 BKN018 21/20
A3013 RMK AO2 $





000
SAUS41 KLWX 061122
MTRRYT
SPECI KRYT 061115Z AUTO 00000KT 2SM BR FEW007 SCT010 BKN018 21/20
A3013 RMK AO2 $





000
SAUS41 KLWX 061100
MTRRYT
METAR KRYT 061053Z AUTO 00000KT 2SM BR OVC010 21/20 A3012 RMK AO2
CIG 007V013 SLP189 T02110200 $





000
SAUS41 KLWX 061100
MTRRYT
METAR KRYT 061053Z AUTO 00000KT 2SM BR OVC010 21/20 A3012 RMK AO2
CIG 007V013 SLP189 T02110200 $





000
SAUS41 KLWX 061058
MTRDMH
METAR KDMH 061054Z AUTO 24/22 A3012 RMK AO1 SLP200 T02390222





000
SAUS41 KLWX 061056
MTRNAK
METAR KNAK 061054Z AUTO 13009KT 8SM CLR 24/22 A3011 RMK AO2 RAB04E37
SLP199 P0001 T02390217





000
SAUS41 KLWX 061050
MTRRYT
SPECI KRYT 061043Z AUTO 00000KT 2SM BR OVC010 21/20 A3013 RMK AO2
CIG 007V013 $





000
SAUS41 KLWX 061050
MTRRYT
SPECI KRYT 061043Z AUTO 00000KT 2SM BR OVC010 21/20 A3013 RMK AO2
CIG 007V013 $





000
SAUS41 KLWX 061040
MTRRYT
SPECI KRYT 061033Z AUTO 00000KT 1 3/4SM BR BKN010 OVC015 21/20 A3013
RMK AO2 $





000
SAUS41 KLWX 061025
MTRRSP
METAR KRSP 060954Z AUTO 1/2SM FG VV001 19/19 A3017 RMK AO2 SLP209
T01940189 $





000
SAUS41 KLWX 061025
MTRRSP
METAR KRSP 060954Z AUTO 1/2SM FG VV001 19/19 A3017 RMK AO2 SLP209
T01940189 $





000
SAUS41 KLWX 061016
MTRRYT
SPECI KRYT 061009Z AUTO 00000KT 1 3/4SM BR OVC008 21/20 A3012 RMK
AO2 CIG 006V012 $





000
SAUS41 KLWX 060959
MTRRYT
METAR KRYT 060953Z AUTO 00000KT 3SM BR BKN008 OVC011 21/20 A3013 RMK
AO2 SLP189 T02110200 $





000
SAUS41 KLWX 060959
MTRRYT
METAR KRYT 060953Z AUTO 00000KT 3SM BR BKN008 OVC011 21/20 A3013 RMK
AO2 SLP189 T02110200 $





000
SAUS41 KLWX 060958
MTRDMH
METAR KDMH 060954Z AUTO 24/22 A3012 RMK AO1 SLP198 T02390222





000
SAUS41 KLWX 060955
MTRNAK
METAR KNAK 060954Z AUTO 13010KT 9SM FEW033 SCT095 SCT120 24/22 A3010
RMK AO2 SLP196 T02390217





000
SAUS41 KLWX 060948
MTRRYT
SPECI KRYT 060942Z AUTO 00000KT 3SM BR OVC008 21/20 A3012 RMK AO2
CIG 006V010 $





000
SAUS41 KLWX 060943
MTRNAK
SPECI KNAK 060942Z AUTO 13011KT 9SM SCT029 SCT045 BKN100 24/22 A3011
RMK AO2 T02390217





000
SAUS41 KLWX 060943
MTRNAK
SPECI KNAK 060942Z AUTO 13011KT 9SM SCT029 SCT045 BKN100 24/22 A3011
RMK AO2 T02390217





000
SAUS41 KLWX 060939
MTRRYT
SPECI KRYT 060932Z AUTO 00000KT 2 1/2SM BR OVC008 21/20 A3012 RMK
AO2 $





000
SAUS41 KLWX 060939
MTRRYT
SPECI KRYT 060932Z AUTO 00000KT 2 1/2SM BR OVC008 21/20 A3012 RMK
AO2 $





000
SAUS41 KLWX 060927
MTRRYT
SPECI KRYT 060920Z AUTO 00000KT 3SM BR OVC008 21/20 A3011 RMK AO2
CIG 006V012 $





000
SAUS41 KLWX 060925
MTRRSP
METAR KRSP 060854Z AUTO M1/4SM FG VV001 19/19 A3016 RMK AO2 RAE03
SLP206 P0000 60003 T01940189 56005 $





000
SAUS41 KLWX 060919
MTRRYT
SPECI KRYT 060912Z AUTO 00000KT 2 1/2SM BR BKN008 OVC013 21/20 A3012
RMK AO2 $





000
SAUS41 KLWX 060911
MTRRYT
SPECI KRYT 060904Z AUTO 00000KT 2 1/2SM BR SCT008 BKN011 21/19 A3012
RMK AO2 $





000
SAUS41 KLWX 060900
MTRRYT
METAR KRYT 060853Z AUTO 00000KT 2 1/2SM BR FEW009 SCT014 BKN110
21/19 A3011 RMK AO2 RAE49 SLP185 P0001 60002 T02060194 58006 $





000
SAUS41 KLWX 060900
MTRRYT
METAR KRYT 060853Z AUTO 00000KT 2 1/2SM BR FEW009 SCT014 BKN110
21/19 A3011 RMK AO2 RAE49 SLP185 P0001 60002 T02060194 58006 $





000
SAUS41 KLWX 060858
MTRDMH
METAR KDMH 060854Z AUTO 24/23 A3011 RMK AO1 SLP196 T02390228 58005





000
SAUS41 KLWX 060858
MTRDMH
METAR KDMH 060854Z AUTO 24/23 A3011 RMK AO1 SLP196 T02390228 58005





000
SAUS41 KLWX 060855
MTRNAK
METAR KNAK 060854Z AUTO 12007KT 10SM BKN026 24/21 A3009 RMK AO2
SLP191 60000 T02390211 58006





000
SAUS41 KLWX 060839
MTRRYT
SPECI KRYT 060832Z AUTO 00000KT 2 1/2SM -RA BR SCT009 BKN110 21/19
A3012 RMK AO2 P0001 $





000
SAUS41 KLWX 060825
MTRRSP
METAR KRSP 060754Z AUTO 1/4SM -RA FG VV001 19/19 A3016 RMK AO2
RAE06B27 SLP207 P0002 T01940189 $





000
SAUS41 KLWX 060800
MTRRYT
SPECI KRYT 060800Z AUTO 00000KT 3SM -RA BR BKN009 OVC110 21/19 A3012
RMK AO2 P0000 $





000
SAUS41 KLWX 060800
MTRRYT
SPECI KRYT 060800Z AUTO 00000KT 3SM -RA BR BKN009 OVC110 21/19 A3012
RMK AO2 P0000 $





000
SAUS41 KLWX 060758
MTRDMH
METAR KDMH 060754Z AUTO 24/22 A3012 RMK AO1 SLP198 T02390222





000
SAUS41 KLWX 060758
MTRDMH
METAR KDMH 060754Z AUTO 24/22 A3012 RMK AO1 SLP198 T02390222





000
SAUS41 KLWX 060755
MTRNAK
METAR KNAK 060754Z AUTO 13010KT 9SM FEW025 BKN047 OVC120 24/22 A3010
RMK AO2 RAB05E16 SLP195 P0000 T02440217





000
SAUS41 KLWX 060750
MTRRYT
SPECI KRYT 060743Z AUTO 00000KT 3SM -RA BR SCT009 SCT070 BKN110
21/20 A3012 RMK AO2 RAB11 P0000 $





000
SAUS41 KLWX 060733
MTRRYT
SPECI KRYT 060726Z AUTO 00000KT 3SM -RA BR SCT110 21/19 A3012 RMK
AO2 RAB11 P0000 $





000
SAUS41 KLWX 060725
MTRRSP
METAR KRSP 060654Z AUTO 3/4SM -RA BR VV002 19/19 A3017 RMK AO2 RAB18
SLP209 P0001 T01940189 $





000
SAUS41 KLWX 060725
MTRRSP
METAR KRSP 060654Z AUTO 3/4SM -RA BR VV002 19/19 A3017 RMK AO2 RAB18
SLP209 P0001 T01940189 $





000
SAUS41 KLWX 060724
MTRRYT
SPECI KRYT 060717Z AUTO 00000KT 2 1/2SM -RA BR SCT065 SCT120 21/20
A3012 RMK AO2 RAB11 P0000 $





000
SAUS41 KLWX 060724
MTRRYT
SPECI KRYT 060717Z AUTO 00000KT 2 1/2SM -RA BR SCT065 SCT120 21/20
A3012 RMK AO2 RAB11 P0000 $





000
SAUS41 KLWX 060708
MTRRSP
SPECI KRSP 060637Z AUTO 1 3/4SM -RA BR BKN002 BKN110 19/19 A3017 RMK
AO2 RAB18 P0001 $





000
SAUS41 KLWX 060708
MTRRSP
SPECI KRSP 060637Z AUTO 1 3/4SM -RA BR BKN002 BKN110 19/19 A3017 RMK
AO2 RAB18 P0001 $





000
SAUS41 KLWX 060702
MTRRSP
SPECI KRSP 060631Z AUTO 3SM BR BKN002 BKN110 19/18 A3017 RMK AO2
RAB18E29 P0001 $





000
SAUS41 KLWX 060702
MTRRSP
SPECI KRSP 060631Z AUTO 3SM BR BKN002 BKN110 19/18 A3017 RMK AO2
RAB18E29 P0001 $





000
SAUS41 KLWX 060700
MTRRYT
METAR KRYT 060653Z AUTO 00000KT 3SM BR BKN065 OVC120 21/20 A3013 RMK
AO2 RAE0558B20E43 SLP190 P0001 T02110200 $





000
SAUS41 KLWX 060700
MTRRYT
METAR KRYT 060653Z AUTO 00000KT 3SM BR BKN065 OVC120 21/20 A3013 RMK
AO2 RAE0558B20E43 SLP190 P0001 T02110200 $





000
SAUS41 KLWX 060658
MTRDMH
METAR KDMH 060654Z AUTO 24/22 A3012 RMK AO1 SLP199 T02390222





000
SAUS41 KLWX 060655
MTRNAK
METAR KNAK 060654Z AUTO 12007KT 8SM FEW013 SCT019 SCT065 24/22 A3011
RMK AO2 RAB17E43 SLP197 P0000 T02440222





000
SAUS41 KLWX 060654
MTRRSP
SPECI KRSP 060623Z AUTO 2SM -RA BR BKN002 BKN110 19/18 A3017 RMK AO2
RAB18 P0000 $





000
SAUS41 KLWX 060654
MTRRSP
SPECI KRSP 060623Z AUTO 2SM -RA BR BKN002 BKN110 19/18 A3017 RMK AO2
RAB18 P0000 $





000
SAUS41 KLWX 060652 COR
MTRNAK
SPECI KNAK 060649Z AUTO 12007KT 9SM FEW013 SCT019 24/22 A3011 RMK
AO2 RAB17E43 P0000





000
SAUS41 KLWX 060651 COR
MTRNAK
SPECI KNAK 060649Z AUTO 12007KT 9SM FEW013 SCT019 24/22 A3011 RMK
AO2 RAB17E43 P0000





000
SAUS41 KLWX 060631
MTRRSP
SPECI KRSP 060601Z AUTO 1/2SM FG VV001 19/19 A3017 RMK AO2 $





000
SAUS41 KLWX 060625
MTRRSP
METAR KRSP 060554Z AUTO 1SM BR VV002 19/19 A3017 RMK AO2 RAB33E50
SLP212 P0000 60000 T01940189 10222 20194 56005 $





000
SAUS41 KLWX 060600
MTRRYT
METAR KRYT 060553Z AUTO 00000KT 5SM -RA BR FEW050 BKN060 OVC110
21/19 A3013 RMK AO2 RAB0454E04B33 SLP192 P0000 60000 T02110194 10233
20211 58004 $





000
SAUS41 KLWX 060600
MTRRYT
METAR KRYT 060553Z AUTO 00000KT 5SM -RA BR FEW050 BKN060 OVC110
21/19 A3013 RMK AO2 RAB0454E04B33 SLP192 P0000 60000 T02110194 10233
20211 58004 $





000
SAUS41 KLWX 060558
MTRDMH
METAR KDMH 060554Z AUTO 24/22 A3013 RMK AO1 SLP201 T02440217 10267
20244 58003





000
SAUS41 KLWX 060558
MTRDMH
METAR KDMH 060554Z AUTO 24/22 A3013 RMK AO1 SLP201 T02440217 10267
20244 58003





000
SAUS41 KLWX 060556
MTRNAK
METAR KNAK 060554Z AUTO 14008KT 10SM BKN015 BKN023 OVC035 24/22
A3011 RMK AO2 RAB32E54 SLP197 P0000 60000 T02440222 10256 20239
56005





000
SAUS41 KLWX 060556
MTRNAK
METAR KNAK 060554Z AUTO 14008KT 10SM BKN015 BKN023 OVC035 24/22
A3011 RMK AO2 RAB32E54 SLP197 P0000 60000 T02440222 10256 20239
56005





000
SAUS41 KLWX 060554
MTRRSP
SPECI KRSP 060523Z AUTO 1 1/2SM BR OVC001 20/19 A3018 RMK AO2 $





000
SAUS41 KLWX 060554
MTRRSP
SPECI KRSP 060523Z AUTO 1 1/2SM BR OVC001 20/19 A3018 RMK AO2 $





000
SAUS41 KLWX 060545
MTRRSP
SPECI KRSP 060513Z AUTO 2 1/2SM BR OVC003 20/19 A3018 RMK AO2 $





000
SAUS41 KLWX 060533
MTRRSP
SPECI KRSP 060502Z AUTO 3SM BR BKN003 OVC016 20/19 A3018 RMK AO2 $





000
SAUS41 KLWX 060533
MTRRSP
SPECI KRSP 060502Z AUTO 3SM BR BKN003 OVC016 20/19 A3018 RMK AO2 $





000
SAUS41 KLWX 060525
MTRRYT
SPECI KRYT 060518Z AUTO 00000KT 5SM BR SCT026 SCT037 BKN065 21/19
A3013 RMK AO2 RAB0454E04 P0000 $





000
SAUS41 KLWX 060525
MTRRSP
METAR KRSP 060454Z AUTO 4SM BR SCT003 SCT010 OVC016 20/19 A3018 RMK
AO2 SLP212 T02000189 402440156 $





000
SAUS41 KLWX 060525
MTRRYT
SPECI KRYT 060518Z AUTO 00000KT 5SM BR SCT026 SCT037 BKN065 21/19
A3013 RMK AO2 RAB0454E04 P0000 $





000
SAUS41 KLWX 060525
MTRRSP
METAR KRSP 060454Z AUTO 4SM BR SCT003 SCT010 OVC016 20/19 A3018 RMK
AO2 SLP212 T02000189 402440156 $





000
SAUS41 KLWX 060516
MTRRSP
SPECI KRSP 060445Z AUTO 4SM BR FEW009 BKN016 OVC028 20/19 A3018 RMK
AO2 $





000
SAUS41 KLWX 060500
MTRRYT
METAR KRYT 060453Z AUTO 00000KT 5SM BR SCT018 BKN022 OVC100 21/19
A3014 RMK AO2 SLP193 T02110194 402610167 $





000
SAUS41 KLWX 060500
MTRRYT
METAR KRYT 060453Z AUTO 00000KT 5SM BR SCT018 BKN022 OVC100 21/19
A3014 RMK AO2 SLP193 T02110194 402610167 $





000
SAUS41 KLWX 060458
MTRRSP
SPECI KRSP 060427Z AUTO 6SM BR BKN014 BKN036 OVC095 21/19 A3018 RMK
AO2 $





000
SAUS41 KLWX 060458
MTRDMH
METAR KDMH 060454Z AUTO 25/22 A3013 RMK AO1 SLP201 T02500217
402830206





000
SAUS41 KLWX 060458
MTRRSP
SPECI KRSP 060427Z AUTO 6SM BR BKN014 BKN036 OVC095 21/19 A3018 RMK
AO2 $





000
SAUS41 KLWX 060458
MTRDMH
METAR KDMH 060454Z AUTO 25/22 A3013 RMK AO1 SLP201 T02500217
402830206





000
SAUS41 KLWX 060455
MTRNAK
METAR KNAK 060454Z AUTO 12006KT 8SM OVC023 25/22 A3011 RMK AO2
SLP197 T02500222 402670206





000
SAUS41 KLWX 060448
MTRRYT
SPECI KRYT 060441Z AUTO 00000KT 6SM BR BKN016 OVC070 22/20 A3014 RMK
AO2 $





000
SAUS41 KLWX 060448
MTRRYT
SPECI KRYT 060441Z AUTO 00000KT 6SM BR BKN016 OVC070 22/20 A3014 RMK
AO2 $





000
SAUS41 KLWX 060425
MTRRSP
METAR KRSP 060354Z AUTO 6SM BR BKN007 OVC010 21/19 A3018 RMK AO2 CIG
005V008 SLP214 T02060189 $





000
SAUS41 KLWX 060400
MTRRYT
METAR KRYT 060353Z AUTO 00000KT 7SM SCT022 BKN070 22/19 A3014 RMK
AO2 SLP196 T02170194 $





000
SAUS41 KLWX 060400
MTRRYT
METAR KRYT 060353Z AUTO 00000KT 7SM SCT022 BKN070 22/19 A3014 RMK
AO2 SLP196 T02170194 $





000
SAUS41 KLWX 060358
MTRDMH
METAR KDMH 060354Z AUTO 25/22 A3014 RMK AO1 SLP204 T02500217





000
SAUS41 KLWX 060355
MTRNAK
METAR KNAK 060354Z AUTO 10004KT 8SM BKN027 BKN034 OVC042 25/22 A3012
RMK AO2 SLP201 T02500222





000
SAUS41 KLWX 060355
MTRNAK
METAR KNAK 060354Z AUTO 10004KT 8SM BKN027 BKN034 OVC042 25/22 A3012
RMK AO2 SLP201 T02500222





000
SAUS41 KLWX 060333
MTRNAK
SPECI KNAK 060331Z AUTO 09003KT 8SM BKN027 BKN032 25/22 A3013 RMK
AO2 T02500217





000
SAUS41 KLWX 060329
MTRRYT
SPECI KRYT 060322Z AUTO 00000KT 7SM FEW016 SCT021 SCT065 21/19 A3014
RMK AO2 $





000
SAUS41 KLWX 060325
MTRRSP
METAR KRSP 060254Z AUTO 6SM BR OVC009 21/19 A3019 RMK AO2 SLP218
T02060189 52003 $





000
SAUS41 KLWX 060300
MTRRYT
METAR KRYT 060253Z AUTO 00000KT 7SM BKN018 BKN023 OVC029 21/19 A3015
RMK AO2 SLP197 T02110194 53005 $





000
SAUS41 KLWX 060258
MTRDMH
METAR KDMH 060254Z AUTO 26/21 A3013 RMK AO1 SLP204 T02560211 50004





000
SAUS41 KLWX 060255
MTRNAK
METAR KNAK 060254Z AUTO 00000KT 8SM CLR 24/22 A3012 RMK AO2 SLP202
T02440217 50003





000
SAUS41 KLWX 060255
MTRNAK
METAR KNAK 060254Z AUTO 00000KT 8SM CLR 24/22 A3012 RMK AO2 SLP202
T02440217 50003





000
SAUS41 KLWX 060246
MTRRYT
SPECI KRYT 060239Z AUTO 00000KT 8SM SCT021 BKN029 BKN037 22/19 A3014
RMK AO2 $





000
SAUS41 KLWX 060246
MTRRYT
SPECI KRYT 060239Z AUTO 00000KT 8SM SCT021 BKN029 BKN037 22/19 A3014
RMK AO2 $





000
SAUS41 KLWX 060239
MTRRSP
SPECI KRSP 060207Z AUTO 5SM BR BKN007 BKN016 21/19 A3019 RMK AO2 CIG
007V012 $





000
SAUS41 KLWX 060225
MTRRSP
METAR KRSP 060154Z AUTO 6SM BR SCT011 BKN017 21/19 A3019 RMK AO2
SLP218 T02110189 $





000
SAUS41 KLWX 060207
MTRRSP
SPECI KRSP 060136Z AUTO 7SM BKN013 OVC020 22/19 A3019 RMK AO2 $





000
SAUS41 KLWX 060200
MTRRYT
METAR KRYT 060153Z AUTO 00000KT 8SM FEW029 SCT038 22/19 A3013 RMK
AO2 SLP194 T02170194 $





000
SAUS41 KLWX 060200
MTRRYT
METAR KRYT 060153Z AUTO 00000KT 8SM FEW029 SCT038 22/19 A3013 RMK
AO2 SLP194 T02170194 $





000
SAUS41 KLWX 060158
MTRDMH
METAR KDMH 060154Z AUTO 26/20 A3014 RMK AO1 SLP204 T02560200





000
SAUS41 KLWX 060155
MTRNAK
METAR KNAK 060154Z AUTO 00000KT 6SM HZ SCT100 24/21 A3013 RMK AO2
SLP204 T02440211





000
SAUS41 KLWX 060155
MTRNAK
METAR KNAK 060154Z AUTO 00000KT 6SM HZ SCT100 24/21 A3013 RMK AO2
SLP204 T02440211





000
SAUS41 KLWX 060149
MTRRSP
SPECI KRSP 060118Z AUTO 7SM SCT015 BKN020 BKN026 22/19 A3018 RMK AO2
$





000
SAUS41 KLWX 060125
MTRRSP
METAR KRSP 060054Z AUTO 8SM FEW016 SCT025 22/18 A3018 RMK AO2 SLP214
T02170183 $





000
SAUS41 KLWX 060100
MTRRYT
METAR KRYT 060053Z AUTO 00000KT 10SM SCT032 23/19 A3014 RMK AO2
SLP195 T02280194 $





000
SAUS41 KLWX 060058
MTRDMH
METAR KDMH 060054Z AUTO 26/19 A3012 RMK AO1 SLP200 T02610189





000
SAUS41 KLWX 060055
MTRNAK
METAR KNAK 060054Z AUTO 10003KT 9SM CLR 25/21 A3011 RMK AO2 SLP198
T02500211





000
SAUS41 KLWX 060025
MTRRSP
METAR KRSP 052354Z AUTO 7SM CLR 22/18 A3019 RMK AO2 SLP216 T02220183
10244 20222 53004 $





000
SAUS41 KLWX 060025
MTRRSP
METAR KRSP 052354Z AUTO 7SM CLR 22/18 A3019 RMK AO2 SLP216 T02220183
10244 20222 53004 $





000
SAUS41 KLWX 060000
MTRRYT
METAR KRYT 052353Z AUTO 00000KT 10SM CLR 23/19 A3013 RMK AO2 SLP192
T02330194 10261 20233 53004 $





000
SAUS41 KLWX 060000
MTRRYT
METAR KRYT 052353Z AUTO 00000KT 10SM CLR 23/19 A3013 RMK AO2 SLP192
T02330194 10261 20233 53004 $





000
SAUS41 KLWX 052358
MTRDMH
METAR KDMH 052354Z AUTO 27/18 A3012 RMK AO1 SLP199 T02670183 10283
20261 53005





000
SAUS41 KLWX 052355
MTRNAK
METAR KNAK 052354Z AUTO 14005KT 8SM CLR 26/21 A3011 RMK AO2 SLP198
T02560206 10267 20250 53002





000
SAUS41 KLWX 052325
MTRRSP
METAR KRSP 052254Z AUTO 9SM CLR 23/18 A3017 RMK AO2 SLP211 T02330183
$





000
SAUS41 KLWX 052300
MTRRYT
METAR KRYT 052253Z AUTO 00000KT 10SM CLR 24/20 A3012 RMK AO2 SLP188
T02440200 $





000
SAUS41 KLWX 052258
MTRDMH
METAR KDMH 052254Z AUTO 27/18 A3011 RMK AO1 SLP195 T02720178





000
SAUS41 KLWX 052255
MTRNAK
METAR KNAK 052254Z AUTO 12006KT 9SM CLR 26/20 A3010 RMK AO2 SLP193
T02560200





000
SAUS41 KLWX 052225
MTRRSP
METAR KRSP 052154Z AUTO 10SM CLR 23/18 A3017 RMK AO2 SLP209
T02330178 $





000
SAUS41 KLWX 052225
MTRRSP
METAR KRSP 052154Z AUTO 10SM CLR 23/18 A3017 RMK AO2 SLP209
T02330178 $





000
SAUS41 KLWX 052200
MTRRYT
METAR KRYT 052153Z AUTO 00000KT 10SM CLR 26/20 A3011 RMK AO2 SLP187
T02560200 $





000
SAUS41 KLWX 052200
MTRRYT
METAR KRYT 052153Z AUTO 00000KT 10SM CLR 26/20 A3011 RMK AO2 SLP187
T02560200 $





000
SAUS41 KLWX 052158
MTRDMH
METAR KDMH 052154Z AUTO 27/19 A3011 RMK AO1 SLP194 T02720194





000
SAUS41 KLWX 052155
MTRNAK
METAR KNAK 052154Z AUTO 13006KT 9SM CLR 26/19 A3010 RMK AO2 SLP193
T02610194





000
SAUS41 KLWX 052155
MTRNAK
METAR KNAK 052154Z AUTO 13006KT 9SM CLR 26/19 A3010 RMK AO2 SLP193
T02610194





000
SAUS41 KLWX 052125
MTRRSP
METAR KRSP 052054Z AUTO 10SM CLR 24/18 A3017 RMK AO2 SLP212
T02390178 56003 $





000
SAUS41 KLWX 052125
MTRRSP
METAR KRSP 052054Z AUTO 10SM CLR 24/18 A3017 RMK AO2 SLP212
T02390178 56003 $





000
SAUS41 KLWX 052100
MTRRYT
METAR KRYT 052053Z AUTO 00000KT 10SM FEW043 BKN065 26/19 A3012 RMK
AO2 SLP189 T02610189 56012 $





000
SAUS41 KLWX 052058
MTRDMH
METAR KDMH 052054Z AUTO 28/19 A3011 RMK AO1 SLP195 T02780194 56013





000
SAUS41 KLWX 052055
MTRNAK
METAR KNAK 052054Z AUTO 12007KT 10SM CLR 26/19 A3011 RMK AO2 SLP196
T02610194 56011





000
SAUS41 KLWX 052055
MTRNAK
METAR KNAK 052054Z AUTO 12007KT 10SM CLR 26/19 A3011 RMK AO2 SLP196
T02610194 56011





000
SAUS41 KLWX 052025
MTRRSP
METAR KRSP 051954Z AUTO 10SM BKN060 23/18 A3017 RMK AO2 SLP213
T02330178 $





000
SAUS41 KLWX 052007
MTRRYT
SPECI KRYT 052000Z AUTO 24003KT 10SM FEW024 SCT030 BKN043 25/19
A3013 RMK AO2 $





000
SAUS41 KLWX 052000
MTRRYT
METAR KRYT 051953Z AUTO 00000KT 10SM BKN026 BKN032 OVC045 25/19
A3013 RMK AO2 SLP193 T02500189 $





000
SAUS41 KLWX 051958
MTRDMH
METAR KDMH 051954Z AUTO 28/19 A3012 RMK AO1 SLP198 T02780189





000
SAUS41 KLWX 051955
MTRNAK
METAR KNAK 051954Z AUTO 11007KT 10SM CLR 26/19 A3011 RMK AO2 SLP199
T02560194





000
SAUS41 KLWX 051925
MTRRSP
METAR KRSP 051854Z AUTO 9SM BKN032 OVC041 22/18 A3017 RMK AO2 SLP214
T02220183 $





000
SAUS41 KLWX 051900
MTRRYT
METAR KRYT 051853Z AUTO 00000KT 10SM BKN024 BKN029 26/19 A3013 RMK
AO2 SLP194 T02560189 $





000
SAUS41 KLWX 051900
MTRRYT
METAR KRYT 051853Z AUTO 00000KT 10SM BKN024 BKN029 26/19 A3013 RMK
AO2 SLP194 T02560189 $





000
SAUS41 KLWX 051858
MTRDMH
METAR KDMH 051854Z AUTO 27/18 A3013 RMK AO1 SLP202 T02670183





000
SAUS41 KLWX 051858
MTRDMH
METAR KDMH 051854Z AUTO 27/18 A3013 RMK AO1 SLP202 T02670183





000
SAUS41 KLWX 051856
MTRNAK
METAR KNAK 051854Z AUTO 12007KT 10SM CLR 26/19 A3013 RMK AO2 SLP203
T02560194





000
SAUS41 KLWX 051831
MTRRYT
SPECI KRYT 051824Z AUTO 00000KT 10SM BKN024 BKN049 26/19 A3014 RMK
AO2 $





000
SAUS41 KLWX 051831
MTRRYT
SPECI KRYT 051824Z AUTO 00000KT 10SM BKN024 BKN049 26/19 A3014 RMK
AO2 $





000
SAUS41 KLWX 051825
MTRRSP
METAR KRSP 051754Z AUTO 9SM FEW012 SCT036 OVC049 23/19 A3018 RMK AO2
SLP216 T02280189 10233 20178 58009 $





000
SAUS41 KLWX 051825
MTRRSP
METAR KRSP 051754Z AUTO 9SM FEW012 SCT036 OVC049 23/19 A3018 RMK AO2
SLP216 T02280189 10233 20178 58009 $





000
SAUS41 KLWX 051807
MTRRYT
SPECI KRYT 051800Z AUTO 00000KT 10SM SCT025 BKN031 BKN049 26/19
A3015 RMK AO2 $





000
SAUS41 KLWX 051807
MTRRYT
SPECI KRYT 051800Z AUTO 00000KT 10SM SCT025 BKN031 BKN049 26/19
A3015 RMK AO2 $





000
SAUS41 KLWX 051800
MTRRYT
METAR KRYT 051753Z AUTO 00000KT 10SM BKN025 BKN031 OVC049 25/18
A3015 RMK AO2 SLP201 T02500183 10256 20194 56003 $





000
SAUS41 KLWX 051758
MTRDMH
METAR KDMH 051754Z AUTO 26/18 A3015 RMK AO1 SLP208 T02610183 10267
20222 58008





000
SAUS41 KLWX 051758
MTRDMH
METAR KDMH 051754Z AUTO 26/18 A3015 RMK AO1 SLP208 T02610183 10267
20222 58008





000
SAUS41 KLWX 051755
MTRNAK
METAR KNAK 051754Z AUTO 12006KT 9SM CLR 25/20 A3014 RMK AO2 SLP207
T02500200 10250 20217 58004





000
SAUS41 KLWX 051755
MTRNAK
METAR KNAK 051754Z AUTO 12006KT 9SM CLR 25/20 A3014 RMK AO2 SLP207
T02500200 10250 20217 58004





000
SAUS41 KLWX 051745
MTRRYT
SPECI KRYT 051738Z AUTO 00000KT 10SM BKN023 OVC049 25/19 A3015 RMK
AO2 $





000
SAUS41 KLWX 051740
MTRRSP
SPECI KRSP 051709Z AUTO 10SM FEW010 SCT037 OVC044 23/18 A3021 RMK
AO2 $





000
SAUS41 KLWX 051735
MTRRYT
SPECI KRYT 051729Z AUTO VRB04KT 10SM SCT023 BKN049 26/19 A3015 RMK
AO2 $





000
SAUS41 KLWX 051731
MTRRSP
SPECI KRSP 051701Z AUTO 10SM FEW010 BKN028 OVC039 23/19 A3021 RMK
AO2 $





000
SAUS41 KLWX 051725
MTRRYT
SPECI KRYT 051718Z AUTO 02003KT 10SM BKN023 24/18 A3016 RMK AO2 $





000
SAUS41 KLWX 051725
MTRRSP
METAR KRSP 051654Z AUTO 10SM FEW020 SCT028 BKN038 23/19 A3021 RMK
AO2 SLP227 T02280189 $





000
SAUS41 KLWX 051725
MTRRSP
METAR KRSP 051654Z AUTO 10SM FEW020 SCT028 BKN038 23/19 A3021 RMK
AO2 SLP227 T02280189 $





000
SAUS41 KLWX 051725
MTRRYT
SPECI KRYT 051718Z AUTO 02003KT 10SM BKN023 24/18 A3016 RMK AO2 $





000
SAUS41 KLWX 051717
MTRRSP
SPECI KRSP 051645Z AUTO 10SM FEW020 BKN038 23/18 A3021 RMK AO2 $





000
SAUS41 KLWX 051709
MTRRSP
SPECI KRSP 051638Z AUTO 10SM SCT020 BKN024 BKN040 22/18 A3022 RMK
AO2 $





000
SAUS41 KLWX 051700
MTRRYT
METAR KRYT 051653Z AUTO VRB04KT 10SM SCT023 24/18 A3016 RMK AO2
SLP202 T02390183 $





000
SAUS41 KLWX 051659
MTRRSP
SPECI KRSP 051628Z AUTO 10SM FEW012 SCT023 BKN035 23/18 A3021 RMK
AO2 $





000
SAUS41 KLWX 051658
MTRDMH
METAR KDMH 051654Z AUTO 26/19 A3016 RMK AO1 SLP212 T02560189





000
SAUS41 KLWX 051655
MTRNAK
METAR KNAK 051654Z AUTO 14007KT 9SM CLR 24/20 A3015 RMK AO2 SLP211
T02440200





000
SAUS41 KLWX 051625
MTRRSP
METAR KRSP 051554Z AUTO 10SM OVC017 23/18 A3021 RMK AO2 SLP225
T02280183 $





000
SAUS41 KLWX 051625
MTRRSP
METAR KRSP 051554Z AUTO 10SM OVC017 23/18 A3021 RMK AO2 SLP225
T02280183 $





000
SAUS41 KLWX 051600
MTRRYT
METAR KRYT 051553Z AUTO VRB04KT 10SM CLR 24/18 A3016 RMK AO2 SLP202
T02390183 $





000
SAUS41 KLWX 051600
MTRRYT
METAR KRYT 051553Z AUTO VRB04KT 10SM CLR 24/18 A3016 RMK AO2 SLP202
T02390183 $





000
SAUS41 KLWX 051558
MTRDMH
METAR KDMH 051554Z AUTO 26/18 A3016 RMK AO1 SLP214 T02560183





000
SAUS41 KLWX 051555
MTRNAK
METAR KNAK 051554Z AUTO 14006KT 10SM SCT024 24/19 A3015 RMK AO2
SLP210 T02440189





000
SAUS41 KLWX 051555
MTRNAK
METAR KNAK 051554Z AUTO 14006KT 10SM SCT024 24/19 A3015 RMK AO2
SLP210 T02440189





000
SAUS41 KLWX 051528
MTRRSP
SPECI KRSP 051457Z AUTO 9SM SCT010 BKN019 22/18 A3021 RMK AO2 $





000
SAUS41 KLWX 051525
MTRRSP
METAR KRSP 051454Z AUTO 9SM BKN008 BKN014 BKN019 22/18 A3021 RMK AO2
SLP227 T02170178 51006 $





000
SAUS41 KLWX 051525
MTRRSP
METAR KRSP 051454Z AUTO 9SM BKN008 BKN014 BKN019 22/18 A3021 RMK AO2
SLP227 T02170178 51006 $





000
SAUS41 KLWX 051512
MTRNAK
SPECI KNAK 051510Z AUTO 15005KT 9SM BKN023 23/19 A3015 RMK AO2
T02330194





000
SAUS41 KLWX 051502
MTRRSP
SPECI KRSP 051431Z AUTO 9SM BKN010 21/18 A3021 RMK AO2 $





000
SAUS41 KLWX 051500
MTRRYT
METAR KRYT 051453Z AUTO VRB04KT 10SM FEW016 23/18 A3016 RMK AO2
SLP204 T02280183 51006 $





000
SAUS41 KLWX 051458
MTRDMH
METAR KDMH 051454Z AUTO 24/18 A3017 RMK AO1 SLP216 T02440178 51007





000
SAUS41 KLWX 051455
MTRNAK
METAR KNAK 051454Z AUTO 00000KT 9SM SCT020 25/19 A3015 RMK AO2
SLP211 T02500194 53005





000
SAUS41 KLWX 051450
MTRRYT
SPECI KRYT 051443Z AUTO 04003KT 10SM SCT016 23/18 A3016 RMK AO2 $





000
SAUS41 KLWX 051450
MTRRYT
SPECI KRYT 051443Z AUTO 04003KT 10SM SCT016 23/18 A3016 RMK AO2 $





000
SAUS41 KLWX 051447
MTRRSP
SPECI KRSP 051416Z AUTO 10SM FEW006 22/17 A3021 RMK AO2 $





000
SAUS41 KLWX 051447
MTRRSP
SPECI KRSP 051416Z AUTO 10SM FEW006 22/17 A3021 RMK AO2 $





000
SAUS41 KLWX 051442
MTRRYT
SPECI KRYT 051435Z AUTO 00000KT 10SM BKN016 22/18 A3017 RMK AO2 $





000
SAUS41 KLWX 051439
MTRRSP
SPECI KRSP 051407Z AUTO 9SM SCT006 BKN011 21/17 A3021 RMK AO2 $





000
SAUS41 KLWX 051425
MTRRSP
METAR KRSP 051354Z AUTO 10SM BKN006 BKN011 21/18 A3021 RMK AO2 CIG
004V009 SLP225 T02110178 $





000
SAUS41 KLWX 051425
MTRRSP
METAR KRSP 051354Z AUTO 10SM BKN006 BKN011 21/18 A3021 RMK AO2 CIG
004V009 SLP225 T02110178 $





000
SAUS41 KLWX 051412
MTRRSP
SPECI KRSP 051341Z AUTO 10SM BKN006 BKN011 21/18 A3021 RMK AO2 CIG
004V010 $





000
SAUS41 KLWX 051408
MTRNAK
SPECI KNAK 051407Z AUTO 08004KT 9SM SCT020 23/19 A3014 RMK AO2
T02330189





000
SAUS41 KLWX 051408
MTRNAK
SPECI KNAK 051407Z AUTO 08004KT 9SM SCT020 23/19 A3014 RMK AO2
T02330189





000
SAUS41 KLWX 051403
MTRRSP
SPECI KRSP 051332Z AUTO 10SM SCT006 21/18 A3021 RMK AO2 $





000
SAUS41 KLWX 051400
MTRRYT
METAR KRYT 051353Z AUTO 00000KT 10SM FEW014 22/18 A3016 RMK AO2
SLP205 T02170178 $





000
SAUS41 KLWX 051358
MTRDMH
METAR KDMH 051354Z AUTO 23/18 A3017 RMK AO1 SLP216 T02330178





000
SAUS41 KLWX 051355
MTRNAK
METAR KNAK 051354Z AUTO 00000KT 9SM BKN020 23/18 A3014 RMK AO2
SLP207 T02280183





000
SAUS41 KLWX 051355
MTRNAK
METAR KNAK 051354Z AUTO 00000KT 9SM BKN020 23/18 A3014 RMK AO2
SLP207 T02280183





000
SAUS41 KLWX 051353
MTRNAK
SPECI KNAK 051352Z AUTO 09003KT 9SM BKN020 23/19 A3014 RMK AO2





000
SAUS41 KLWX 051346
MTRNAK
SPECI KNAK 051345Z AUTO 00000KT 8SM SCT019 23/19 A3014 RMK AO2
T02330189





000
SAUS41 KLWX 051346
MTRNAK
SPECI KNAK 051345Z AUTO 00000KT 8SM SCT019 23/19 A3014 RMK AO2
T02330189





000
SAUS41 KLWX 051339
MTRNAK
SPECI KNAK 051338Z AUTO 00000KT 7SM BKN019 23/19 A3014 RMK AO2
T02330194





000
SAUS41 KLWX 051339
MTRNAK
SPECI KNAK 051338Z AUTO 00000KT 7SM BKN019 23/19 A3014 RMK AO2
T02330194





000
SAUS41 KLWX 051334
MTRRYT
SPECI KRYT 051327Z AUTO 00000KT 10SM SCT010 21/17 A3016 RMK AO2 $





000
SAUS41 KLWX 051325
MTRRSP
METAR KRSP 051254Z AUTO 10SM CLR 21/18 A3019 RMK AO2 SLP221
T02060178 $





000
SAUS41 KLWX 051325
MTRRSP
METAR KRSP 051254Z AUTO 10SM CLR 21/18 A3019 RMK AO2 SLP221
T02060178 $





000
SAUS41 KLWX 051324
MTRNAK
SPECI KNAK 051323Z AUTO VRB03KT 7SM SCT016 23/19 A3014 RMK AO2
T02280189





000
SAUS41 KLWX 051324
MTRNAK
SPECI KNAK 051323Z AUTO VRB03KT 7SM SCT016 23/19 A3014 RMK AO2
T02280189





000
SAUS41 KLWX 051308
MTRRYT
SPECI KRYT 051307Z AUTO 00000KT 10SM BKN010 20/17 A3016 RMK AO2 CIG
006V012 $





000
SAUS41 KLWX 051308
MTRRYT
SPECI KRYT 051307Z AUTO 00000KT 10SM BKN010 20/17 A3016 RMK AO2 CIG
006V012 $





000
SAUS41 KLWX 051306
MTRNAK
SPECI KNAK 051304Z AUTO 00000KT 6SM HZ BKN016 22/19 A3014 RMK AO2
T02220194





000
SAUS41 KLWX 051306
MTRNAK
SPECI KNAK 051304Z AUTO 00000KT 6SM HZ BKN016 22/19 A3014 RMK AO2
T02220194





000
SAUS41 KLWX 051300
MTRRYT
METAR KRYT 051253Z AUTO 00000KT 10SM BKN008 20/17 A3015 RMK AO2
SLP202 T02000172 $





000
SAUS41 KLWX 051300
MTRRYT
METAR KRYT 051253Z AUTO 00000KT 10SM BKN008 20/17 A3015 RMK AO2
SLP202 T02000172 $





000
SAUS41 KLWX 051258
MTRDMH
METAR KDMH 051254Z AUTO 23/18 A3017 RMK AO1 SLP215 T02280178





000
SAUS41 KLWX 051255
MTRNAK
METAR KNAK 051254Z AUTO 00000KT 5SM HZ SCT016 22/19 A3014 RMK AO2
SLP206 T02220194





000
SAUS41 KLWX 051253
MTRRSP
SPECI KRSP 051222Z AUTO 8SM SCT001 19/17 A3019 RMK AO2 $





000
SAUS41 KLWX 051225
MTRRSP
METAR KRSP 051154Z AUTO 3SM BR OVC001 18/17 A3018 RMK AO2 SLP219
70003 T01830172 10183 20161 51023 $





000
SAUS41 KLWX 051219
MTRRYT
SPECI KRYT 051212Z AUTO 00000KT 9SM OVC006 19/17 A3014 RMK AO2 $





000
SAUS41 KLWX 051219
MTRRYT
SPECI KRYT 051212Z AUTO 00000KT 9SM OVC006 19/17 A3014 RMK AO2 $





000
SAUS41 KLWX 051219
MTRRSP
SPECI KRSP 051148Z AUTO 2SM BR OVC001 18/17 A3018 RMK AO2 VIS 1
1/4V2 1/2 $





000
SAUS41 KLWX 051200
MTRRYT
METAR KRYT 051153Z AUTO 00000KT 8SM BKN008 19/18 A3015 RMK AO2
SLP200 70011 T01940178 10194 20167 53020 $





000
SAUS41 KLWX 051158
MTRDMH
METAR KDMH 051154Z AUTO 22/18 A3015 RMK AO1 SLP209 70013 T02220178
10222 20206 53026





000
SAUS41 KLWX 051155
MTRNAK
METAR KNAK 051154Z AUTO 00000KT 4SM BR CLR 22/19 A3012 RMK AO2
SLP201 70020 T02170194 10217 20206 52022





000
SAUS41 KLWX 051151
MTRRYT
SPECI KRYT 051144Z AUTO 00000KT 6SM BR BKN008 19/18 A3014 RMK AO2 $





000
SAUS41 KLWX 051134
MTRRYT
SPECI KRYT 051127Z AUTO 00000KT 4SM BR SCT010 18/17 A3013 RMK AO2 $





000
SAUS41 KLWX 051134
MTRRYT
SPECI KRYT 051127Z AUTO 00000KT 4SM BR SCT010 18/17 A3013 RMK AO2 $





000
SAUS41 KLWX 051125
MTRRSP
METAR KRSP 051054Z AUTO M1/4SM FG VV001 17/17 A3018 RMK AO2 SLP218
T01720167 $





000
SAUS41 KLWX 051125
MTRRSP
METAR KRSP 051054Z AUTO M1/4SM FG VV001 17/17 A3018 RMK AO2 SLP218
T01720167 $





000
SAUS41 KLWX 051115
MTRRYT
SPECI KRYT 051108Z AUTO 00000KT 5SM BR OVC010 18/17 A3013 RMK AO2 $





000
SAUS41 KLWX 051100
MTRRYT
METAR KRYT 051053Z AUTO 00000KT 4SM BR OVC008 17/16 A3013 RMK AO2
CIG 007V012 SLP196 T01720161 $





000
SAUS41 KLWX 051100
MTRRYT
METAR KRYT 051053Z AUTO 00000KT 4SM BR OVC008 17/16 A3013 RMK AO2
CIG 007V012 SLP196 T01720161 $





000
SAUS41 KLWX 051058
MTRDMH
METAR KDMH 051054Z AUTO 21/18 A3011 RMK AO1 SLP196 T02110178





000
SAUS41 KLWX 051055
MTRNAK
METAR KNAK 051054Z AUTO 33004KT 4SM BR CLR 21/19 A3010 RMK AO2
SLP195 T02110189





000
SAUS41 KLWX 051042
MTRRSP
SPECI KRSP 051011Z AUTO 1/4SM FG OVC001 17/17 A3015 RMK AO2 $





000
SAUS41 KLWX 051032
MTRRYT
SPECI KRYT 051026Z AUTO 00000KT 3SM BR OVC008 17/16 A3011 RMK AO2 $





000
SAUS41 KLWX 051032
MTRRYT
SPECI KRYT 051026Z AUTO 00000KT 3SM BR OVC008 17/16 A3011 RMK AO2 $





000
SAUS41 KLWX 051030
MTRRSP
SPECI KRSP 050959Z AUTO 1 3/4SM BR OVC003 17/16 A3014 RMK AO2 $





000
SAUS41 KLWX 051025
MTRRSP
METAR KRSP 050954Z AUTO 3SM BR OVC003 17/16 A3013 RMK AO2 SLP201
T01720161 $





000
SAUS41 KLWX 051015
MTRRYT
SPECI KRYT 051008Z AUTO 00000KT 2 1/2SM BR FEW002 OVC010 17/16 A3011
RMK AO2 $





000
SAUS41 KLWX 051003
MTRRSP
SPECI KRSP 050932Z AUTO 5SM BR BKN003 17/16 A3012 RMK AO2 $





000
SAUS41 KLWX 051003
MTRRSP
SPECI KRSP 050932Z AUTO 5SM BR BKN003 17/16 A3012 RMK AO2 $





000
SAUS41 KLWX 051000
MTRRYT
METAR KRYT 050953Z AUTO 00000KT 4SM BR SCT002 OVC010 17/16 A3010 RMK
AO2 SLP185 T01670156 $





000
SAUS41 KLWX 051000
MTRRYT
METAR KRYT 050953Z AUTO 00000KT 4SM BR SCT002 OVC010 17/16 A3010 RMK
AO2 SLP185 T01670156 $





000
SAUS41 KLWX 050958
MTRDMH
METAR KDMH 050954Z AUTO 21/18 A3009 RMK AO1 SLP188 T02060183





000
SAUS41 KLWX 050958
MTRDMH
METAR KDMH 050954Z AUTO 21/18 A3009 RMK AO1 SLP188 T02060183





000
SAUS41 KLWX 050955
MTRNAK
METAR KNAK 050954Z AUTO 35004KT 4SM BR CLR 21/19 A3007 RMK AO2
SLP185 T02060189





000
SAUS41 KLWX 050955
MTRNAK
METAR KNAK 050954Z AUTO 35004KT 4SM BR CLR 21/19 A3007 RMK AO2
SLP185 T02060189





000
SAUS41 KLWX 050946
MTRRYT
SPECI KRYT 050939Z AUTO 00000KT 4SM BR BKN002 OVC015 17/16 A3009 RMK
AO2 $





000
SAUS41 KLWX 050935
MTRRYT
SPECI KRYT 050928Z AUTO 00000KT 4SM BR SCT002 OVC015 17/16 A3009 RMK
AO2 $





000
SAUS41 KLWX 050931
MTRRSP
SPECI KRSP 050901Z AUTO 5SM BR SCT005 17/16 A3011 RMK AO2 $





000
SAUS41 KLWX 050925
MTRRSP
METAR KRSP 050854Z AUTO 5SM BR BKN005 17/16 A3011 RMK AO2 SLP193
T01670156 50008 $





000
SAUS41 KLWX 050900
MTRRYT
METAR KRYT 050853Z AUTO 00000KT 4SM BR OVC017 17/16 A3008 RMK AO2
SLP180 T01720161 50003 $





000
SAUS41 KLWX 050858
MTRDMH
METAR KDMH 050854Z AUTO 21/18 A3007 RMK AO1 SLP184 T02110183 51009





000
SAUS41 KLWX 050855
MTRNAK
METAR KNAK 050854Z AUTO 01005KT 6SM BR CLR 21/19 A3006 RMK AO2
SLP179 T02110189 51006





000
SAUS41 KLWX 050840
MTRRYT
SPECI KRYT 050833Z AUTO 00000KT 4SM BR SCT006 OVC017 17/16 A3008 RMK
AO2 $





000
SAUS41 KLWX 050840
MTRRYT
SPECI KRYT 050833Z AUTO 00000KT 4SM BR SCT006 OVC017 17/16 A3008 RMK
AO2 $





000
SAUS41 KLWX 050825
MTRRSP
METAR KRSP 050754Z AUTO 7SM OVC007 17/16 A3014 RMK AO2 SLP202
T01670156 $





000
SAUS41 KLWX 050803
MTRRYT
SPECI KRYT 050756Z AUTO 00000KT 3SM BR BKN006 OVC019 17/16 A3009 RMK
AO2 $





000
SAUS41 KLWX 050803
MTRRYT
SPECI KRYT 050756Z AUTO 00000KT 3SM BR BKN006 OVC019 17/16 A3009 RMK
AO2 $





000
SAUS41 KLWX 050758
MTRDMH
METAR KDMH 050754Z AUTO 21/18 A3006 RMK AO1 SLP179 T02110183





000
SAUS41 KLWX 050758
MTRDMH
METAR KDMH 050754Z AUTO 21/18 A3006 RMK AO1 SLP179 T02110183





000
SAUS41 KLWX 050756
MTRNAK
METAR KNAK 050754Z AUTO 34005KT 4SM BR SCT022 21/19 A3005 RMK AO2
SLP179 T02110194





000
SAUS41 KLWX 050756
MTRNAK
METAR KNAK 050754Z AUTO 34005KT 4SM BR SCT022 21/19 A3005 RMK AO2
SLP179 T02110194





000
SAUS41 KLWX 050747
MTRNAK
SPECI KNAK 050746Z AUTO 33006KT 4SM BR SCT022 21/19 A3005 RMK AO2
T02110194





000
SAUS41 KLWX 050747
MTRNAK
SPECI KNAK 050746Z AUTO 33006KT 4SM BR SCT022 21/19 A3005 RMK AO2
T02110194





000
SAUS41 KLWX 050735
MTRRSP
SPECI KRSP 050704Z AUTO 7SM BKN007 17/16 A3011 RMK AO2 $





000
SAUS41 KLWX 050735
MTRNAK
SPECI KNAK 050734Z AUTO 33007KT 4SM BR SCT022 BKN027 21/19 A3005 RMK
AO2 T02110194





000
SAUS41 KLWX 050733
MTRRYT
SPECI KRYT 050726Z AUTO 00000KT 3SM BR SCT002 OVC019 17/16 A3008 RMK
AO2 $





000
SAUS41 KLWX 050727
MTRNAK
SPECI KNAK 050725Z AUTO 33006KT 4SM BR FEW022 SCT027 21/19 A3005 RMK
AO2 T02110194





000
SAUS41 KLWX 050725
MTRRSP
METAR KRSP 050654Z AUTO 7SM SCT007 16/15 A3011 RMK AO2 SLP192
T01610150 $





000
SAUS41 KLWX 050725
MTRRYT
SPECI KRYT 050718Z AUTO 00000KT 1 1/4SM BR SCT002 OVC019 17/16 A3008
RMK AO2 $





000
SAUS41 KLWX 050725
MTRRSP
METAR KRSP 050654Z AUTO 7SM SCT007 16/15 A3011 RMK AO2 SLP192
T01610150 $





000
SAUS41 KLWX 050700
MTRRYT
METAR KRYT 050653Z AUTO 00000KT 2SM BR SCT002 OVC019 17/16 A3008 RMK
AO2 SLP178 T01670161 $





000
SAUS41 KLWX 050658
MTRDMH
METAR KDMH 050654Z AUTO 21/18 A3006 RMK AO1 SLP179 T02110183





000
SAUS41 KLWX 050655
MTRNAK
METAR KNAK 050654Z AUTO 33004KT 4SM BR BKN016 OVC028 22/20 A3005 RMK
AO2 SLP176 T02170200





000
SAUS41 KLWX 050655
MTRNAK
METAR KNAK 050654Z AUTO 33004KT 4SM BR BKN016 OVC028 22/20 A3005 RMK
AO2 SLP176 T02170200





000
SAUS41 KLWX 050645
MTRRYT
SPECI KRYT 050638Z AUTO 00000KT 1/2SM FG BKN002 BKN019 17/16 A3007
RMK AO2 $





000
SAUS41 KLWX 050645
MTRRYT
SPECI KRYT 050638Z AUTO 00000KT 1/2SM FG BKN002 BKN019 17/16 A3007
RMK AO2 $





    US Dept of Commerce
    National Oceanic and Atmospheric Administration
    National Weather Service
    1325 East West Highway
    Silver Spring, MD 20910
    Page Author: NWS Internet Services Team
Disclaimer
Information Quality
Credits
Glossary
Privacy Policy
Freedom of Information Act (FOIA)
About Us
Career Opportunities